Time,TemperatureF,DewpointF,PressureIn,WindDirection,WindDirectionDegrees,WindSpeedMPH,WindSpeedGustMPH,Humidity,HourlyPrecipIn,Conditions,Clouds,dailyrainin,SoftwareType,DateUTC
2013-03-18 00:00:00,28.6,23.2,29.06,SW,215,8.1,8.1,80,0.00,,,0.00,VWS V14.01,2013-03-18 04:00:00,
2013-03-18 00:05:00,28.6,23.2,29.06,SW,223,3.1,3.1,80,0.00,,,0.00,VWS V14.01,2013-03-18 04:05:00,
2013-03-18 00:10:00,28.6,23.2,29.06,SSW,209,8.1,8.1,80,0.00,,,0.00,VWS V14.01,2013-03-18 04:10:00,
2013-03-18 00:15:00,28.6,23.2,29.06,SW,229,6.3,6.3,80,0.00,,,0.00,VWS V14.01,2013-03-18 04:15:00,
2013-03-18 00:20:00,28.6,23.2,29.06,SW,216,5.8,5.8,80,0.00,,,0.00,VWS V14.01,2013-03-18 04:20:00,
2013-03-18 00:25:00,28.6,23.2,29.06,SW,226,6.3,6.3,80,0.00,,,0.00,VWS V14.01,2013-03-18 04:25:00,
2013-03-18 00:26:00,28.6,23.2,29.06,South,184,6.3,6.3,80,0.00,,,0.00,VWS V14.01,2013-03-18 04:26:00,
2013-03-18 00:30:00,28.4,23.3,29.06,SSW,210,3.6,4.9,81,0.00,,,0.00,VWS V14.01,2013-03-18 04:30:00,
2013-03-18 00:31:00,28.4,23.3,29.06,SSW,210,3.6,4.9,81,0.00,,,0.00,VWS V14.01,2013-03-18 04:31:00,
2013-03-18 00:35:00,28.4,23.3,29.06,SSW,207,5.8,5.8,81,0.00,,,0.00,VWS V14.01,2013-03-18 04:35:00,
2013-03-18 00:36:00,28.4,23.3,29.06,SSW,211,6.3,6.3,81,0.00,,,0.00,VWS V14.01,2013-03-18 04:36:00,
2013-03-18 00:40:00,28.4,23.3,29.06,West,264,5.4,5.4,81,0.00,,,0.00,VWS V14.01,2013-03-18 04:40:00,
2013-03-18 00:41:00,28.4,23.3,29.06,West,264,5.4,5.4,81,0.00,,,0.00,VWS V14.01,2013-03-18 04:41:00,
2013-03-18 00:45:00,28.4,23.3,29.06,SSW,207,7.6,7.6,81,0.00,,,0.00,VWS V14.01,2013-03-18 04:45:00,
2013-03-18 00:46:00,28.4,23.3,29.06,SSW,207,7.6,7.6,81,0.00,,,0.00,VWS V14.01,2013-03-18 04:46:00,
2013-03-18 00:50:00,28.4,23.3,29.06,SW,234,8.3,8.3,81,0.00,,,0.00,VWS V14.01,2013-03-18 04:50:00,
2013-03-18 00:51:00,28.4,23.3,29.06,SW,234,8.3,8.3,81,0.00,,,0.00,VWS V14.01,2013-03-18 04:51:00,
2013-03-18 00:52:00,28.4,23.3,29.03,SSW,196,6.3,6.3,81,0.00,,,0.00,VWS V14.01,2013-03-18 04:52:00,
2013-03-18 00:55:00,28.4,23.3,29.03,SSW,213,6.3,6.3,81,0.00,,,0.00,VWS V14.01,2013-03-18 04:55:00,
2013-03-18 00:56:00,28.4,23.3,29.03,SSW,213,6.3,6.3,81,0.00,,,0.00,VWS V14.01,2013-03-18 04:56:00,
2013-03-18 00:57:00,28.2,23.1,29.03,SSW,213,6.3,6.3,81,0.00,,,0.00,VWS V14.01,2013-03-18 04:57:00,
2013-03-18 01:00:00,28.2,23.1,29.03,WSW,240,6.3,6.3,81,0.00,,,0.00,VWS V14.01,2013-03-18 05:00:00,
2013-03-18 01:01:00,28.2,23.1,29.03,SW,217,7.6,7.6,81,0.00,,,0.00,VWS V14.01,2013-03-18 05:01:00,
2013-03-18 01:02:00,28.2,23.1,29.03,WSW,258,7.6,7.6,81,0.00,,,0.00,VWS V14.01,2013-03-18 05:02:00,
2013-03-18 01:05:00,28.2,23.1,29.03,SSW,209,3.6,8.7,81,0.00,,,0.00,VWS V14.01,2013-03-18 05:05:00,
2013-03-18 01:06:00,28.2,23.1,29.06,SSW,209,3.6,3.6,81,0.00,,,0.00,VWS V14.01,2013-03-18 05:06:00,
2013-03-18 01:07:00,28.2,23.1,29.06,SSW,209,3.6,3.6,81,0.00,,,0.00,VWS V14.01,2013-03-18 05:07:00,
2013-03-18 01:10:00,28.2,23.1,29.06,SW,224,5.4,5.4,81,0.00,,,0.00,VWS V14.01,2013-03-18 05:10:00,
2013-03-18 01:11:00,28.2,23.1,29.06,SW,224,5.4,5.4,81,0.00,,,0.00,VWS V14.01,2013-03-18 05:11:00,
2013-03-18 01:12:00,28.2,23.1,29.06,SW,214,6.3,6.3,81,0.00,,,0.00,VWS V14.01,2013-03-18 05:12:00,
2013-03-18 01:16:00,28.2,23.4,29.06,SW,214,6.3,6.3,82,0.00,,,0.00,VWS V14.01,2013-03-18 05:16:00,
2013-03-18 01:17:00,28.2,23.4,29.06,SW,214,6.3,6.3,82,0.00,,,0.00,VWS V14.01,2013-03-18 05:17:00,
2013-03-18 01:21:00,28.2,23.4,29.06,SW,217,5.8,5.8,82,0.00,,,0.00,VWS V14.01,2013-03-18 05:21:00,
2013-03-18 01:23:00,28.2,23.4,29.06,SW,216,5.4,5.4,82,0.00,,,0.00,VWS V14.01,2013-03-18 05:23:00,
2013-03-18 01:26:00,28.2,23.4,29.03,SSW,193,4.0,6.3,82,0.00,,,0.00,VWS V14.01,2013-03-18 05:26:00,
2013-03-18 01:27:00,28.2,23.4,29.03,SSW,193,4.0,6.3,82,0.00,,,0.00,VWS V14.01,2013-03-18 05:27:00,
2013-03-18 01:28:00,28.2,23.4,29.03,SW,216,3.6,3.6,82,0.00,,,0.00,VWS V14.01,2013-03-18 05:28:00,
2013-03-18 01:32:00,28.2,23.4,29.03,WSW,241,3.1,3.6,82,0.00,,,0.00,VWS V14.01,2013-03-18 05:32:00,
2013-03-18 01:33:00,28.2,23.4,29.03,SSW,212,5.4,5.4,82,0.00,,,0.00,VWS V14.01,2013-03-18 05:33:00,
2013-03-18 01:37:00,28.2,23.4,29.03,WSW,240,3.1,5.8,82,0.00,,,0.00,VWS V14.01,2013-03-18 05:37:00,
2013-03-18 01:38:00,28.2,23.4,29.03,WSW,240,3.1,3.1,82,0.00,,,0.00,VWS V14.01,2013-03-18 05:38:00,
2013-03-18 01:42:00,28.2,23.4,29.03,WSW,240,8.3,8.3,82,0.00,,,0.00,VWS V14.01,2013-03-18 05:42:00,
2013-03-18 01:43:00,28.2,23.4,29.03,WSW,240,8.3,8.3,82,0.00,,,0.00,VWS V14.01,2013-03-18 05:43:00,
2013-03-18 01:47:00,28.2,23.4,29.03,SW,224,6.3,8.3,82,0.00,,,0.00,VWS V14.01,2013-03-18 05:47:00,
2013-03-18 01:48:00,28.2,23.4,29.03,SW,224,6.3,8.3,82,0.00,,,0.00,VWS V14.01,2013-03-18 05:48:00,
2013-03-18 01:52:00,28.2,23.4,29.03,SW,230,5.8,5.8,82,0.00,,,0.00,VWS V14.01,2013-03-18 05:52:00,
2013-03-18 01:53:00,28.2,23.4,29.03,SW,230,5.8,5.8,82,0.00,,,0.00,VWS V14.01,2013-03-18 05:53:00,
2013-03-18 01:54:00,28.2,23.4,29.03,SW,221,6.3,6.3,82,0.00,,,0.00,VWS V14.01,2013-03-18 05:54:00,
2013-03-18 01:57:00,28.2,23.4,29.03,WSW,244,8.1,8.1,82,0.00,,,0.00,VWS V14.01,2013-03-18 05:57:00,
2013-03-18 01:58:00,28.2,23.4,29.03,WSW,244,8.1,8.1,82,0.00,,,0.00,VWS V14.01,2013-03-18 05:58:00,
2013-03-18 01:59:00,28.2,23.4,29.03,WSW,244,8.1,8.1,82,0.00,,,0.00,VWS V14.01,2013-03-18 05:59:00,
2013-03-18 02:02:00,28.2,23.4,29.03,SW,226,5.8,5.8,82,0.00,,,0.00,VWS V14.01,2013-03-18 06:02:00,
2013-03-18 02:03:00,28.2,23.4,29.03,SW,226,5.8,5.8,82,0.00,,,0.00,VWS V14.01,2013-03-18 06:03:00,
2013-03-18 02:04:00,28.2,23.4,29.03,SW,226,5.8,5.8,82,0.00,,,0.00,VWS V14.01,2013-03-18 06:04:00,
2013-03-18 02:07:00,28.2,23.4,29.00,SW,230,5.4,5.4,82,0.00,,,0.00,VWS V14.01,2013-03-18 06:07:00,
2013-03-18 02:08:00,28.2,23.4,29.00,SW,230,5.4,5.4,82,0.00,,,0.00,VWS V14.01,2013-03-18 06:08:00,
2013-03-18 02:09:00,28.2,23.4,29.00,SSW,213,4.0,5.4,82,0.00,,,0.00,VWS V14.01,2013-03-18 06:09:00,
2013-03-18 02:12:00,28.2,23.4,29.00,SSW,213,4.0,4.0,82,0.00,,,0.00,VWS V14.01,2013-03-18 06:12:00,
2013-03-18 02:13:00,28.2,23.4,29.00,SSW,213,4.0,4.0,82,0.00,,,0.00,VWS V14.01,2013-03-18 06:13:00,
2013-03-18 02:14:00,28.2,23.4,29.00,SSW,213,4.0,4.0,82,0.00,,,0.00,VWS V14.01,2013-03-18 06:14:00,
2013-03-18 02:17:00,28.4,23.6,29.00,SW,221,8.1,8.1,82,0.00,,,0.00,VWS V14.01,2013-03-18 06:17:00,
2013-03-18 02:18:00,28.4,23.6,29.00,SW,221,8.1,8.1,82,0.00,,,0.00,VWS V14.01,2013-03-18 06:18:00,
2013-03-18 02:19:00,28.4,23.6,29.00,SW,222,6.3,8.1,82,0.00,,,0.00,VWS V14.01,2013-03-18 06:19:00,
2013-03-18 02:22:00,28.4,23.6,29.00,SW,229,6.3,6.3,82,0.00,,,0.00,VWS V14.01,2013-03-18 06:22:00,
2013-03-18 02:23:00,28.4,23.6,29.00,SW,229,6.3,6.3,82,0.00,,,0.00,VWS V14.01,2013-03-18 06:23:00,
2013-03-18 02:24:00,28.4,23.6,29.00,SW,229,6.3,6.3,82,0.00,,,0.00,VWS V14.01,2013-03-18 06:24:00,
2013-03-18 02:27:00,28.6,23.8,29.00,SW,232,5.4,5.4,82,0.00,,,0.00,VWS V14.01,2013-03-18 06:27:00,
2013-03-18 02:28:00,28.6,23.8,29.00,SW,230,5.8,5.8,82,0.00,,,0.00,VWS V14.01,2013-03-18 06:28:00,
2013-03-18 02:29:00,28.6,23.8,29.00,SSW,208,7.6,8.1,82,0.00,,,0.00,VWS V14.01,2013-03-18 06:29:00,
2013-03-18 02:32:00,28.6,23.8,29.00,SSW,208,7.6,7.6,82,0.00,,,0.00,VWS V14.01,2013-03-18 06:32:00,
2013-03-18 02:33:00,28.6,23.8,29.00,SSW,208,7.6,7.6,82,0.00,,,0.00,VWS V14.01,2013-03-18 06:33:00,
2013-03-18 02:34:00,28.6,23.8,29.00,SSW,208,7.6,7.6,82,0.00,,,0.00,VWS V14.01,2013-03-18 06:34:00,
2013-03-18 02:38:00,28.6,23.8,29.00,SSW,207,5.8,8.3,82,0.00,,,0.00,VWS V14.01,2013-03-18 06:38:00,
2013-03-18 02:39:00,28.6,23.8,29.00,SSW,207,5.8,5.8,82,0.00,,,0.00,VWS V14.01,2013-03-18 06:39:00,
2013-03-18 02:43:00,28.8,24.0,28.97,SSW,210,5.8,5.8,82,0.00,,,0.00,VWS V14.01,2013-03-18 06:43:00,
2013-03-18 02:44:00,28.8,24.0,28.97,SSW,210,5.8,5.8,82,0.00,,,0.00,VWS V14.01,2013-03-18 06:44:00,
2013-03-18 02:48:00,28.8,24.0,28.97,WSW,245,4.0,4.0,82,0.00,,,0.00,VWS V14.01,2013-03-18 06:48:00,
2013-03-18 02:49:00,28.8,24.0,28.97,WSW,245,4.0,4.0,82,0.00,,,0.00,VWS V14.01,2013-03-18 06:49:00,
2013-03-18 02:53:00,28.8,24.0,28.97,SSW,206,5.8,5.8,82,0.00,,,0.00,VWS V14.01,2013-03-18 06:53:00,
2013-03-18 02:54:00,28.8,24.0,28.97,SW,217,8.1,8.1,82,0.00,,,0.00,VWS V14.01,2013-03-18 06:54:00,
2013-03-18 02:58:00,28.9,24.1,28.97,SW,222,6.3,6.3,82,0.00,,,0.00,VWS V14.01,2013-03-18 06:58:00,
2013-03-18 02:59:00,28.9,24.1,28.97,SW,222,6.3,6.3,82,0.00,,,0.00,VWS V14.01,2013-03-18 06:59:00,
2013-03-18 03:03:00,28.9,24.1,28.97,SSW,209,5.8,5.8,82,0.00,,,0.00,VWS V14.01,2013-03-18 07:03:00,
2013-03-18 03:04:00,28.9,24.1,28.97,SSW,209,5.8,5.8,82,0.00,,,0.00,VWS V14.01,2013-03-18 07:04:00,
2013-03-18 03:08:00,28.9,24.1,28.97,WSW,255,11.0,11.0,82,0.00,,,0.00,VWS V14.01,2013-03-18 07:08:00,
2013-03-18 03:09:00,28.9,24.1,28.97,SW,220,9.6,11.0,82,0.00,,,0.00,VWS V14.01,2013-03-18 07:09:00,
2013-03-18 03:13:00,28.9,24.1,28.97,SSW,213,7.2,7.2,82,0.00,,,0.00,VWS V14.01,2013-03-18 07:13:00,
2013-03-18 03:14:00,28.9,24.1,28.97,SSW,213,7.2,7.2,82,0.00,,,0.00,VWS V14.01,2013-03-18 07:14:00,
2013-03-18 03:18:00,28.9,24.1,28.97,SSW,200,4.0,7.2,82,0.00,,,0.00,VWS V14.01,2013-03-18 07:18:00,
2013-03-18 03:19:00,28.9,24.1,28.97,SSW,200,4.0,4.0,82,0.00,,,0.00,VWS V14.01,2013-03-18 07:19:00,
2013-03-18 03:23:00,29.1,24.3,28.97,SSW,208,3.6,3.6,82,0.00,,,0.00,VWS V14.01,2013-03-18 07:23:00,
2013-03-18 03:24:00,29.1,24.3,28.97,SSW,208,3.6,3.6,82,0.00,,,0.00,VWS V14.01,2013-03-18 07:24:00,
2013-03-18 03:28:00,29.1,24.3,28.97,SSW,198,7.6,7.6,82,0.00,,,0.00,VWS V14.01,2013-03-18 07:28:00,
2013-03-18 03:29:00,29.1,24.3,28.97,SSW,198,7.6,7.6,82,0.00,,,0.00,VWS V14.01,2013-03-18 07:29:00,
2013-03-18 03:33:00,29.3,24.5,28.97,SW,217,4.0,4.0,82,0.00,,,0.00,VWS V14.01,2013-03-18 07:33:00,
2013-03-18 03:34:00,29.1,24.3,28.97,SW,217,4.0,4.0,82,0.00,,,0.00,VWS V14.01,2013-03-18 07:34:00,
2013-03-18 03:35:00,29.1,24.3,28.97,SW,214,7.6,7.6,82,0.00,,,0.00,VWS V14.01,2013-03-18 07:35:00,
2013-03-18 03:39:00,29.3,24.5,28.94,SW,221,5.8,5.8,82,0.00,,,0.00,VWS V14.01,2013-03-18 07:39:00,
2013-03-18 03:40:00,29.3,24.5,28.94,WSW,242,8.3,8.3,82,0.00,,,0.00,VWS V14.01,2013-03-18 07:40:00,
2013-03-18 03:44:00,29.3,24.5,28.94,SW,225,8.1,8.1,82,0.00,,,0.00,VWS V14.01,2013-03-18 07:44:00,
2013-03-18 03:45:00,29.3,24.5,28.94,SW,225,8.1,8.1,82,0.00,,,0.00,VWS V14.01,2013-03-18 07:45:00,
2013-03-18 03:49:00,29.3,24.5,28.94,SW,226,7.6,7.6,82,0.00,,,0.00,VWS V14.01,2013-03-18 07:49:00,
2013-03-18 03:50:00,29.1,24.3,28.94,SW,226,7.6,7.6,82,0.00,,,0.00,VWS V14.01,2013-03-18 07:50:00,
2013-03-18 03:54:00,29.1,24.3,28.94,WSW,241,8.3,8.3,82,0.00,,,0.00,VWS V14.01,2013-03-18 07:54:00,
2013-03-18 03:55:00,29.1,24.3,28.94,WSW,241,8.3,8.3,82,0.00,,,0.00,VWS V14.01,2013-03-18 07:55:00,
2013-03-18 03:59:00,29.1,24.3,28.94,WSW,241,8.3,8.3,82,0.00,,,0.00,VWS V14.01,2013-03-18 07:59:00,
2013-03-18 04:00:00,29.1,24.3,28.94,SW,218,5.8,8.3,82,0.00,,,0.00,VWS V14.01,2013-03-18 08:00:00,
2013-03-18 04:04:00,29.1,24.3,28.94,SW,220,4.0,4.0,82,0.00,,,0.00,VWS V14.01,2013-03-18 08:04:00,
2013-03-18 04:05:00,29.1,24.3,28.94,South,171,3.1,3.1,82,0.00,,,0.00,VWS V14.01,2013-03-18 08:05:00,
2013-03-18 04:09:00,29.1,24.3,28.94,SSW,194,5.4,5.4,82,0.00,,,0.00,VWS V14.01,2013-03-18 08:09:00,
2013-03-18 04:10:00,29.1,24.3,28.94,South,185,5.8,5.8,82,0.00,,,0.00,VWS V14.01,2013-03-18 08:10:00,
2013-03-18 04:14:00,29.1,24.3,28.94,SW,216,5.8,5.8,82,0.00,,,0.00,VWS V14.01,2013-03-18 08:14:00,
2013-03-18 04:15:00,28.9,24.4,28.94,SW,220,5.8,5.8,83,0.00,,,0.00,VWS V14.01,2013-03-18 08:15:00,
2013-03-18 04:16:00,28.9,24.4,28.94,SW,235,6.7,6.7,83,0.00,,,0.00,VWS V14.01,2013-03-18 08:16:00,
2013-03-18 04:19:00,28.9,24.4,28.94,SW,232,6.3,6.3,83,0.00,,,0.00,VWS V14.01,2013-03-18 08:19:00,
2013-03-18 04:20:00,28.9,24.4,28.94,SW,232,6.3,6.3,83,0.00,,,0.00,VWS V14.01,2013-03-18 08:20:00,
2013-03-18 04:21:00,28.9,24.4,28.94,SW,225,5.8,6.3,83,0.00,,,0.00,VWS V14.01,2013-03-18 08:21:00,
2013-03-18 04:22:00,28.9,24.4,28.91,SW,229,6.3,6.3,83,0.00,,,0.00,VWS V14.01,2013-03-18 08:22:00,
2013-03-18 04:24:00,28.8,24.3,28.91,SW,229,6.3,6.3,83,0.00,,,0.00,VWS V14.01,2013-03-18 08:24:00,
2013-03-18 04:25:00,28.8,24.3,28.91,SSW,209,6.3,6.3,83,0.00,,,0.00,VWS V14.01,2013-03-18 08:25:00,
2013-03-18 04:26:00,28.8,24.3,28.91,SSW,209,6.3,6.3,83,0.00,,,0.00,VWS V14.01,2013-03-18 08:26:00,
2013-03-18 04:27:00,28.8,24.3,28.91,SW,231,8.1,8.7,83,0.00,,,0.00,VWS V14.01,2013-03-18 08:27:00,
2013-03-18 04:29:00,28.8,24.3,28.91,SW,219,6.3,6.3,83,0.00,,,0.00,VWS V14.01,2013-03-18 08:29:00,
2013-03-18 04:30:00,28.8,24.3,28.91,SW,219,6.3,6.3,83,0.00,,,0.00,VWS V14.01,2013-03-18 08:30:00,
2013-03-18 04:31:00,28.8,24.3,28.91,SW,219,6.3,6.3,83,0.00,,,0.00,VWS V14.01,2013-03-18 08:31:00,
2013-03-18 04:32:00,28.8,24.3,28.91,SW,219,6.3,6.3,83,0.00,,,0.00,VWS V14.01,2013-03-18 08:32:00,
2013-03-18 04:34:00,28.8,24.3,28.91,SW,225,8.1,8.1,83,0.00,,,0.00,VWS V14.01,2013-03-18 08:34:00,
2013-03-18 04:35:00,28.8,24.5,28.91,SSW,206,7.6,8.1,84,0.00,,,0.00,VWS V14.01,2013-03-18 08:35:00,
2013-03-18 04:36:00,28.8,24.5,28.91,SW,217,6.3,8.1,84,0.00,,,0.00,VWS V14.01,2013-03-18 08:36:00,
2013-03-18 04:37:00,28.8,24.5,28.91,SW,224,6.3,6.3,84,0.00,,,0.00,VWS V14.01,2013-03-18 08:37:00,
2013-03-18 04:39:00,28.8,24.5,28.88,SW,223,5.8,5.8,84,0.00,,,0.00,VWS V14.01,2013-03-18 08:39:00,
2013-03-18 04:40:00,28.8,24.5,28.88,SW,223,5.8,5.8,84,0.00,,,0.00,VWS V14.01,2013-03-18 08:40:00,
2013-03-18 04:41:00,28.8,24.5,28.88,SSW,196,5.4,5.4,84,0.00,,,0.00,VWS V14.01,2013-03-18 08:41:00,
2013-03-18 04:42:00,28.8,24.5,28.88,SW,231,7.6,7.6,84,0.00,,,0.00,VWS V14.01,2013-03-18 08:42:00,
2013-03-18 04:45:00,28.8,24.5,28.88,SW,231,7.6,7.6,84,0.00,,,0.00,VWS V14.01,2013-03-18 08:45:00,
2013-03-18 04:47:00,28.8,24.8,28.88,SW,232,2.7,2.7,85,0.00,,,0.00,VWS V14.01,2013-03-18 08:47:00,
2013-03-18 04:50:00,28.8,24.8,28.88,SSW,213,8.3,8.3,85,0.00,,,0.00,VWS V14.01,2013-03-18 08:50:00,
2013-03-18 04:52:00,28.8,24.8,28.88,South,181,2.7,2.7,85,0.00,,,0.00,VWS V14.01,2013-03-18 08:52:00,
2013-03-18 04:55:00,28.8,24.8,28.88,SW,235,5.4,5.4,85,0.00,,,0.00,VWS V14.01,2013-03-18 08:55:00,
2013-03-18 04:57:00,28.8,25.1,28.88,West,263,8.7,8.7,86,0.00,,,0.00,VWS V14.01,2013-03-18 08:57:00,
2013-03-18 05:00:00,28.8,25.1,28.88,West,263,8.7,8.7,86,0.00,,,0.00,VWS V14.01,2013-03-18 09:00:00,
2013-03-18 05:02:00,28.8,25.1,28.88,SSW,200,5.8,5.8,86,0.00,,,0.00,VWS V14.01,2013-03-18 09:02:00,
2013-03-18 05:03:00,28.8,25.1,28.88,SSW,200,5.8,5.8,86,0.00,,,0.00,VWS V14.01,2013-03-18 09:03:00,
2013-03-18 05:05:00,28.8,25.1,28.88,SW,214,4.5,4.5,86,0.00,,,0.00,VWS V14.01,2013-03-18 09:05:00,
2013-03-18 05:07:00,28.8,25.1,28.88,SW,214,4.5,4.5,86,0.00,,,0.00,VWS V14.01,2013-03-18 09:07:00,
2013-03-18 05:08:00,28.8,25.1,28.88,SW,214,4.5,4.5,86,0.00,,,0.00,VWS V14.01,2013-03-18 09:08:00,
2013-03-18 05:10:00,28.8,25.4,28.88,SSW,209,7.2,7.2,87,0.00,,,0.00,VWS V14.01,2013-03-18 09:10:00,
2013-03-18 05:12:00,28.8,25.4,28.88,SSW,213,5.4,6.7,87,0.00,,,0.00,VWS V14.01,2013-03-18 09:12:00,
2013-03-18 05:13:00,28.8,25.4,28.88,SSW,213,5.4,6.7,87,0.00,,,0.00,VWS V14.01,2013-03-18 09:13:00,
2013-03-18 05:15:00,28.8,25.4,28.88,SSW,213,5.4,5.4,87,0.00,,,0.00,VWS V14.01,2013-03-18 09:15:00,
2013-03-18 05:17:00,28.8,25.4,28.88,SSW,194,5.4,5.4,87,0.00,,,0.00,VWS V14.01,2013-03-18 09:17:00,
2013-03-18 05:18:00,28.8,25.4,28.88,SSW,194,5.4,5.4,87,0.00,,,0.00,VWS V14.01,2013-03-18 09:18:00,
2013-03-18 05:20:00,28.8,25.4,28.88,SW,217,5.8,5.8,87,0.00,,,0.00,VWS V14.01,2013-03-18 09:20:00,
2013-03-18 05:23:00,28.8,25.4,28.88,WSW,239,5.4,5.4,87,0.00,,,0.00,VWS V14.01,2013-03-18 09:23:00,
2013-03-18 05:25:00,28.8,25.4,28.85,SSW,208,4.0,4.0,87,0.00,,,0.00,VWS V14.01,2013-03-18 09:25:00,
2013-03-18 05:28:00,28.8,25.4,28.85,SW,224,7.6,7.6,87,0.00,,,0.00,VWS V14.01,2013-03-18 09:28:00,
2013-03-18 05:30:00,28.8,25.4,28.85,SW,217,5.8,5.8,87,0.00,,,0.00,VWS V14.01,2013-03-18 09:30:00,
2013-03-18 05:33:00,28.8,25.7,28.85,SW,217,5.8,5.8,88,0.00,,,0.00,VWS V14.01,2013-03-18 09:33:00,
2013-03-18 05:35:00,28.8,25.7,28.85,SSW,212,6.3,6.3,88,0.00,,,0.00,VWS V14.01,2013-03-18 09:35:00,
2013-03-18 05:38:00,28.8,25.7,28.85,SW,223,6.3,6.3,88,0.00,,,0.00,VWS V14.01,2013-03-18 09:38:00,
2013-03-18 05:40:00,28.8,25.7,28.85,SW,215,7.6,7.6,88,0.00,,,0.00,VWS V14.01,2013-03-18 09:40:00,
2013-03-18 05:41:00,28.8,25.7,28.85,SW,215,7.6,7.6,88,0.00,,,0.00,VWS V14.01,2013-03-18 09:41:00,
2013-03-18 05:43:00,28.8,25.7,28.85,SW,222,5.8,7.6,88,0.00,,,0.00,VWS V14.01,2013-03-18 09:43:00,
2013-03-18 05:45:00,28.8,25.7,28.85,SW,217,7.6,7.6,88,0.00,,,0.00,VWS V14.01,2013-03-18 09:45:00,
2013-03-18 05:46:00,28.8,25.7,28.85,SW,217,7.6,7.6,88,0.00,,,0.00,VWS V14.01,2013-03-18 09:46:00,
2013-03-18 05:48:00,28.8,25.7,28.85,SSW,194,4.9,4.9,88,0.00,,,0.00,VWS V14.01,2013-03-18 09:48:00,
2013-03-18 05:50:00,28.8,25.7,28.85,SSW,194,4.9,4.9,88,0.00,,,0.00,VWS V14.01,2013-03-18 09:50:00,
2013-03-18 05:51:00,28.8,25.7,28.85,SSW,194,4.9,4.9,88,0.00,,,0.00,VWS V14.01,2013-03-18 09:51:00,
2013-03-18 05:53:00,28.8,25.7,28.85,SW,232,5.8,5.8,88,0.00,,,0.00,VWS V14.01,2013-03-18 09:53:00,
2013-03-18 05:54:00,28.8,25.7,28.85,SW,232,5.8,5.8,88,0.00,,,0.00,VWS V14.01,2013-03-18 09:54:00,
2013-03-18 05:55:00,28.8,25.7,28.85,SSW,208,6.3,6.3,88,0.00,,,0.00,VWS V14.01,2013-03-18 09:55:00,
2013-03-18 05:56:00,28.8,25.7,28.85,SSW,208,6.3,6.3,88,0.00,,,0.00,VWS V14.01,2013-03-18 09:56:00,
2013-03-18 05:58:00,28.9,26.1,28.85,SSW,195,4.0,4.0,89,0.00,,,0.00,VWS V14.01,2013-03-18 09:58:00,
2013-03-18 05:59:00,28.9,26.1,28.85,SSW,195,4.0,4.0,89,0.00,,,0.00,VWS V14.01,2013-03-18 09:59:00,
2013-03-18 06:00:00,28.9,26.1,28.85,SW,216,5.8,5.8,89,0.00,,,0.00,VWS V14.01,2013-03-18 10:00:00,
2013-03-18 06:01:00,28.9,26.1,28.85,SW,216,5.8,5.8,89,0.00,,,0.00,VWS V14.01,2013-03-18 10:01:00,
2013-03-18 06:04:00,29.1,26.3,28.85,SSW,208,2.7,4.5,89,0.00,,,0.00,VWS V14.01,2013-03-18 10:04:00,
2013-03-18 06:05:00,29.1,26.3,28.85,SSW,208,2.7,2.7,89,0.00,,,0.00,VWS V14.01,2013-03-18 10:05:00,
2013-03-18 06:06:00,29.1,26.3,28.85,SW,223,5.8,5.8,89,0.00,,,0.00,VWS V14.01,2013-03-18 10:06:00,
2013-03-18 06:09:00,29.1,26.3,28.82,WSW,253,6.3,6.3,89,0.00,,,0.00,VWS V14.01,2013-03-18 10:09:00,
2013-03-18 06:10:00,29.1,26.3,28.82,SSW,206,5.4,6.3,89,0.00,,,0.00,VWS V14.01,2013-03-18 10:10:00,
2013-03-18 06:11:00,29.1,26.3,28.82,SSW,206,5.4,5.4,89,0.00,,,0.00,VWS V14.01,2013-03-18 10:11:00,
2013-03-18 06:14:00,29.1,26.3,28.82,WNW,292,8.7,8.7,89,0.00,,,0.00,VWS V14.01,2013-03-18 10:14:00,
2013-03-18 06:15:00,29.1,26.3,28.82,SSW,211,5.8,5.8,89,0.00,,,0.00,VWS V14.01,2013-03-18 10:15:00,
2013-03-18 06:17:00,29.1,26.3,28.82,SSW,212,3.1,5.8,89,0.00,,,0.00,VWS V14.01,2013-03-18 10:17:00,
2013-03-18 06:19:00,29.1,26.3,28.82,SW,217,9.6,9.6,89,0.00,,,0.00,VWS V14.01,2013-03-18 10:19:00,
2013-03-18 06:20:00,29.1,26.6,28.82,SW,217,9.6,9.6,90,0.00,,,0.00,VWS V14.01,2013-03-18 10:20:00,
2013-03-18 06:22:00,29.1,26.6,28.82,SSW,212,6.3,6.3,90,0.00,,,0.00,VWS V14.01,2013-03-18 10:22:00,
2013-03-18 06:24:00,29.1,26.6,28.82,SSW,212,6.3,6.3,90,0.00,,,0.00,VWS V14.01,2013-03-18 10:24:00,
2013-03-18 06:26:00,29.1,26.6,28.82,SSW,212,6.3,6.3,90,0.00,,,0.00,VWS V14.01,2013-03-18 10:26:00,
2013-03-18 06:27:00,29.1,26.6,28.82,SSW,212,6.3,6.3,90,0.00,,,0.00,VWS V14.01,2013-03-18 10:27:00,
2013-03-18 06:29:00,29.1,26.6,28.82,South,186,5.8,5.8,90,0.00,,,0.00,VWS V14.01,2013-03-18 10:29:00,
2013-03-18 06:31:00,29.1,26.6,28.82,South,174,4.9,4.9,90,0.00,,,0.00,VWS V14.01,2013-03-18 10:31:00,
2013-03-18 06:32:00,29.1,26.6,28.82,SW,224,3.6,4.9,90,0.00,,,0.00,VWS V14.01,2013-03-18 10:32:00,
2013-03-18 06:34:00,29.1,26.6,28.82,SW,225,6.3,6.3,90,0.00,,,0.00,VWS V14.01,2013-03-18 10:34:00,
2013-03-18 06:35:00,29.1,26.6,28.82,SW,225,6.3,6.3,90,0.00,,,0.00,VWS V14.01,2013-03-18 10:35:00,
2013-03-18 06:37:00,29.1,26.6,28.82,SW,217,5.8,5.8,90,0.00,,,0.00,VWS V14.01,2013-03-18 10:37:00,
2013-03-18 06:39:00,29.1,26.6,28.82,SSW,213,7.6,7.6,90,0.00,,,0.00,VWS V14.01,2013-03-18 10:39:00,
2013-03-18 06:40:00,29.1,26.6,28.82,SSW,213,7.6,7.6,90,0.00,,,0.00,VWS V14.01,2013-03-18 10:40:00,
2013-03-18 06:42:00,29.1,26.6,28.82,SSW,210,5.8,5.8,90,0.00,,,0.00,VWS V14.01,2013-03-18 10:42:00,
2013-03-18 06:44:00,29.3,27.0,28.82,SSW,210,5.8,5.8,91,0.00,,,0.00,VWS V14.01,2013-03-18 10:44:00,
2013-03-18 06:45:00,29.3,27.0,28.82,SW,217,2.7,2.7,91,0.00,,,0.00,VWS V14.01,2013-03-18 10:45:00,
2013-03-18 06:47:00,29.3,27.0,28.82,SW,232,5.4,5.4,91,0.00,,,0.00,VWS V14.01,2013-03-18 10:47:00,
2013-03-18 06:49:00,29.3,27.0,28.82,SW,232,5.4,5.4,91,0.00,,,0.00,VWS V14.01,2013-03-18 10:49:00,
2013-03-18 06:50:00,29.3,27.0,28.82,SW,226,5.8,5.8,91,0.00,,,0.00,VWS V14.01,2013-03-18 10:50:00,
2013-03-18 06:52:00,29.3,27.0,28.82,SW,233,6.3,6.3,91,0.00,,,0.00,VWS V14.01,2013-03-18 10:52:00,
2013-03-18 06:54:00,29.3,27.0,28.82,SW,233,6.3,6.3,91,0.00,,,0.00,VWS V14.01,2013-03-18 10:54:00,
2013-03-18 06:55:00,29.3,27.0,28.82,SSW,209,4.0,4.0,91,0.00,,,0.00,VWS V14.01,2013-03-18 10:55:00,
2013-03-18 06:57:00,29.5,27.5,28.79,SW,218,8.1,8.1,92,0.00,,,0.00,VWS V14.01,2013-03-18 10:57:00,
2013-03-18 06:59:00,29.5,27.5,28.79,SSW,193,5.4,5.4,92,0.00,,,0.00,VWS V14.01,2013-03-18 10:59:00,
2013-03-18 07:00:00,29.5,27.5,28.79,SSW,200,4.9,5.4,92,0.00,,,0.00,VWS V14.01,2013-03-18 11:00:00,
2013-03-18 07:02:00,29.5,27.5,28.79,SW,219,3.6,4.0,92,0.00,,,0.00,VWS V14.01,2013-03-18 11:02:00,
2013-03-18 07:03:00,29.5,27.5,28.79,SW,232,4.0,4.0,92,0.00,,,0.00,VWS V14.01,2013-03-18 11:03:00,
2013-03-18 07:05:00,29.5,27.5,28.79,SSE,156,5.4,5.4,92,0.00,,,0.00,VWS V14.01,2013-03-18 11:05:00,
2013-03-18 07:07:00,29.7,27.6,28.79,SSW,213,6.3,6.3,92,0.00,,,0.00,VWS V14.01,2013-03-18 11:07:00,
2013-03-18 07:08:00,29.7,27.6,28.79,SW,214,3.1,6.3,92,0.00,,,0.00,VWS V14.01,2013-03-18 11:08:00,
2013-03-18 07:10:00,29.8,27.8,28.79,SW,214,3.1,3.1,92,0.00,,,0.00,VWS V14.01,2013-03-18 11:10:00,
2013-03-18 07:13:00,29.8,27.8,28.79,SW,220,5.4,5.4,92,0.00,,,0.00,VWS V14.01,2013-03-18 11:13:00,
2013-03-18 07:15:00,29.8,28.1,28.79,SW,220,5.4,5.4,93,0.00,,,0.00,VWS V14.01,2013-03-18 11:15:00,
2013-03-18 07:18:00,29.8,28.1,28.79,SW,220,5.4,5.4,93,0.00,,,0.00,VWS V14.01,2013-03-18 11:18:00,
2013-03-18 07:20:00,29.8,28.1,28.79,SW,220,5.4,5.4,93,0.00,,,0.00,VWS V14.01,2013-03-18 11:20:00,
2013-03-18 07:23:00,29.8,28.1,28.79,SSW,204,5.4,5.4,93,0.00,,,0.00,VWS V14.01,2013-03-18 11:23:00,
2013-03-18 07:25:00,29.8,28.1,28.79,SW,231,4.0,5.4,93,0.00,,,0.00,VWS V14.01,2013-03-18 11:25:00,
2013-03-18 07:28:00,29.8,28.1,28.79,SSW,202,2.2,2.2,93,0.00,,,0.00,VWS V14.01,2013-03-18 11:28:00,
2013-03-18 07:30:00,29.8,28.1,28.79,SSE,165,3.1,3.1,93,0.00,,,0.00,VWS V14.01,2013-03-18 11:30:00,
2013-03-18 07:33:00,29.8,28.1,28.79,SSE,165,3.1,3.1,93,0.00,,,0.00,VWS V14.01,2013-03-18 11:33:00,
2013-03-18 07:35:00,29.8,28.1,28.79,South,188,3.6,3.6,93,0.00,,,0.00,VWS V14.01,2013-03-18 11:35:00,
2013-03-18 07:38:00,29.8,28.1,28.79,SSW,211,3.6,3.6,93,0.00,,,0.00,VWS V14.01,2013-03-18 11:38:00,
2013-03-18 07:39:00,29.8,28.1,28.79,SW,223,5.4,6.3,93,0.00,,,0.00,VWS V14.01,2013-03-18 11:39:00,
2013-03-18 07:40:00,29.8,28.3,28.79,SW,223,5.4,5.4,94,0.00,,,0.00,VWS V14.01,2013-03-18 11:40:00,
2013-03-18 07:41:00,29.8,28.3,28.79,SW,223,5.4,5.4,94,0.00,,,0.00,VWS V14.01,2013-03-18 11:41:00,
2013-03-18 07:43:00,29.8,28.3,28.79,SW,223,5.4,5.4,94,0.00,,,0.00,VWS V14.01,2013-03-18 11:43:00,
2013-03-18 07:44:00,29.8,28.3,28.79,SW,223,5.4,5.4,94,0.00,,,0.00,VWS V14.01,2013-03-18 11:44:00,
2013-03-18 07:45:00,29.8,28.3,28.79,SSW,210,4.9,4.9,94,0.00,,,0.00,VWS V14.01,2013-03-18 11:45:00,
2013-03-18 07:46:00,29.8,28.3,28.79,SSW,210,4.9,4.9,94,0.00,,,0.00,VWS V14.01,2013-03-18 11:46:00,
2013-03-18 07:49:00,29.8,28.3,28.79,SW,223,5.8,5.8,94,0.00,,,0.00,VWS V14.01,2013-03-18 11:49:00,
2013-03-18 07:50:00,29.8,28.3,28.79,SW,223,5.8,5.8,94,0.00,,,0.00,VWS V14.01,2013-03-18 11:50:00,
2013-03-18 07:51:00,29.8,28.3,28.79,SW,223,5.8,5.8,94,0.00,,,0.00,VWS V14.01,2013-03-18 11:51:00,
2013-03-18 07:54:00,29.8,28.3,28.79,SSW,212,3.6,3.6,94,0.00,,,0.00,VWS V14.01,2013-03-18 11:54:00,
2013-03-18 07:55:00,29.8,28.3,28.79,SW,217,7.6,7.6,94,0.00,,,0.00,VWS V14.01,2013-03-18 11:55:00,
2013-03-18 07:56:00,29.8,28.3,28.79,SW,217,7.6,7.6,94,0.00,,,0.00,VWS V14.01,2013-03-18 11:56:00,
2013-03-18 07:59:00,29.8,28.6,28.79,SW,222,6.3,6.3,95,0.00,,,0.00,VWS V14.01,2013-03-18 11:59:00,
2013-03-18 08:00:00,29.8,28.6,28.79,SW,222,6.3,6.3,95,0.00,,,0.00,VWS V14.01,2013-03-18 12:00:00,
2013-03-18 08:01:00,29.8,28.6,28.79,SSW,208,5.4,6.3,95,0.00,,,0.00,VWS V14.01,2013-03-18 12:01:00,
2013-03-18 08:04:00,29.8,28.6,28.79,SW,218,5.8,5.8,95,0.00,,,0.00,VWS V14.01,2013-03-18 12:04:00,
2013-03-18 08:06:00,29.8,28.6,28.79,SSW,212,4.0,4.0,95,0.00,,,0.00,VWS V14.01,2013-03-18 12:06:00,
2013-03-18 08:09:00,29.8,28.6,28.79,SSW,205,6.7,6.7,95,0.00,,,0.00,VWS V14.01,2013-03-18 12:09:00,
2013-03-18 08:11:00,29.8,28.6,28.79,SW,230,5.4,6.7,95,0.00,,,0.00,VWS V14.01,2013-03-18 12:11:00,
2013-03-18 08:14:00,29.8,28.6,28.79,SW,224,5.4,5.4,95,0.00,,,0.00,VWS V14.01,2013-03-18 12:14:00,
2013-03-18 08:16:00,30.0,29.0,28.79,SSW,194,5.4,5.4,96,0.00,,,0.00,VWS V14.01,2013-03-18 12:16:00,
2013-03-18 08:19:00,30.0,29.0,28.79,SW,231,4.0,4.0,96,0.00,,,0.00,VWS V14.01,2013-03-18 12:19:00,
2013-03-18 08:21:00,30.0,29.0,28.79,SW,231,4.0,4.0,96,0.00,,,0.00,VWS V14.01,2013-03-18 12:21:00,
2013-03-18 08:22:00,30.0,29.0,28.79,SW,231,4.0,4.0,96,0.00,,,0.00,VWS V14.01,2013-03-18 12:22:00,
2013-03-18 08:24:00,30.0,29.0,28.79,SW,231,4.0,4.0,96,0.00,,,0.00,VWS V14.01,2013-03-18 12:24:00,
2013-03-18 08:27:00,30.0,29.0,28.79,SW,231,4.0,4.0,96,0.00,,,0.00,VWS V14.01,2013-03-18 12:27:00,
2013-03-18 08:29:00,30.0,29.3,28.79,SSW,211,5.8,5.8,97,0.00,,,0.00,VWS V14.01,2013-03-18 12:29:00,
2013-03-18 08:30:00,30.0,29.3,28.79,SSW,211,5.8,5.8,97,0.00,,,0.00,VWS V14.01,2013-03-18 12:30:00,
2013-03-18 08:32:00,30.0,29.3,28.79,SSW,208,5.4,5.4,97,0.00,,,0.00,VWS V14.01,2013-03-18 12:32:00,
2013-03-18 08:34:00,30.0,29.3,28.79,SSW,208,5.4,5.4,97,0.00,,,0.00,VWS V14.01,2013-03-18 12:34:00,
2013-03-18 08:35:00,30.0,29.3,28.79,SSW,208,5.4,5.4,97,0.00,,,0.00,VWS V14.01,2013-03-18 12:35:00,
2013-03-18 08:37:00,30.0,29.3,28.79,SSW,208,5.4,5.4,97,0.00,,,0.00,VWS V14.01,2013-03-18 12:37:00,
2013-03-18 08:39:00,30.0,29.3,28.79,SSW,210,5.4,7.6,97,0.00,,,0.00,VWS V14.01,2013-03-18 12:39:00,
2013-03-18 08:40:00,30.0,29.3,28.76,SSW,210,5.4,7.6,97,0.00,,,0.00,VWS V14.01,2013-03-18 12:40:00,
2013-03-18 08:42:00,30.0,29.5,28.76,SSW,193,8.1,8.1,98,0.00,,,0.00,VWS V14.01,2013-03-18 12:42:00,
2013-03-18 08:44:00,30.2,29.7,28.76,SW,214,3.6,3.6,98,0.00,,,0.00,VWS V14.01,2013-03-18 12:44:00,
2013-03-18 08:45:00,30.2,29.7,28.76,SW,214,3.6,3.6,98,0.00,,,0.00,VWS V14.01,2013-03-18 12:45:00,
2013-03-18 08:47:00,30.2,29.7,28.76,SW,218,3.1,3.1,98,0.00,,,0.00,VWS V14.01,2013-03-18 12:47:00,
2013-03-18 08:48:00,30.2,29.7,28.76,SW,218,3.1,3.1,98,0.00,,,0.00,VWS V14.01,2013-03-18 12:48:00,
2013-03-18 08:49:00,30.2,29.7,28.76,SW,218,3.1,3.1,98,0.00,,,0.00,VWS V14.01,2013-03-18 12:49:00,
2013-03-18 08:50:00,30.2,29.7,28.76,SW,218,3.1,3.1,98,0.00,,,0.00,VWS V14.01,2013-03-18 12:50:00,
2013-03-18 08:52:00,30.2,29.7,28.76,SW,214,4.9,4.9,98,0.00,,,0.00,VWS V14.01,2013-03-18 12:52:00,
2013-03-18 08:53:00,30.2,29.7,28.76,SW,214,4.9,4.9,98,0.00,,,0.00,VWS V14.01,2013-03-18 12:53:00,
2013-03-18 08:54:00,30.2,29.7,28.76,SW,216,5.8,5.8,98,0.00,,,0.00,VWS V14.01,2013-03-18 12:54:00,
2013-03-18 08:55:00,30.2,29.7,28.76,SW,216,5.8,5.8,98,0.00,,,0.00,VWS V14.01,2013-03-18 12:55:00,
2013-03-18 08:58:00,30.2,30.0,28.76,SW,216,5.4,5.4,99,0.00,,,0.00,VWS V14.01,2013-03-18 12:58:00,
2013-03-18 08:59:00,30.2,30.0,28.76,SW,217,6.3,6.3,99,0.00,,,0.00,VWS V14.01,2013-03-18 12:59:00,
2013-03-18 09:00:00,30.2,30.0,28.76,SW,217,6.3,6.3,99,0.00,,,0.00,VWS V14.01,2013-03-18 13:00:00,
2013-03-18 09:03:00,30.2,30.0,28.76,SW,231,4.0,4.0,99,0.00,,,0.00,VWS V14.01,2013-03-18 13:03:00,
2013-03-18 09:04:00,30.2,30.0,28.76,SW,220,4.0,4.0,99,0.00,,,0.00,VWS V14.01,2013-03-18 13:04:00,
2013-03-18 09:05:00,30.2,30.0,28.76,SW,220,4.0,4.0,99,0.00,,,0.00,VWS V14.01,2013-03-18 13:05:00,
2013-03-18 09:08:00,30.2,30.0,28.76,SW,217,5.4,5.4,99,0.00,,,0.00,VWS V14.01,2013-03-18 13:08:00,
2013-03-18 09:09:00,30.2,30.0,28.76,SW,217,5.4,5.4,99,0.00,,,0.00,VWS V14.01,2013-03-18 13:09:00,
2013-03-18 09:10:00,30.2,30.0,28.76,SW,217,5.4,5.4,99,0.00,,,0.00,VWS V14.01,2013-03-18 13:10:00,
2013-03-18 09:13:00,30.2,30.0,28.76,WSW,246,7.6,7.6,99,0.00,,,0.00,VWS V14.01,2013-03-18 13:13:00,
2013-03-18 09:14:00,30.2,30.0,28.76,SW,223,3.6,7.6,99,0.00,,,0.00,VWS V14.01,2013-03-18 13:14:00,
2013-03-18 09:15:00,30.2,30.0,28.76,SW,223,3.6,7.6,99,0.00,,,0.00,VWS V14.01,2013-03-18 13:15:00,
2013-03-18 09:18:00,30.4,30.4,28.76,SW,223,3.6,3.6,100,0.00,,,0.00,VWS V14.01,2013-03-18 13:18:00,
2013-03-18 09:19:00,30.4,30.4,28.76,SW,223,3.6,3.6,100,0.00,,,0.00,VWS V14.01,2013-03-18 13:19:00,
2013-03-18 09:20:00,30.4,30.4,28.76,SW,223,3.6,3.6,100,0.00,,,0.00,VWS V14.01,2013-03-18 13:20:00,
2013-03-18 09:23:00,30.4,30.4,28.73,South,186,2.2,2.2,100,0.00,,,0.00,VWS V14.01,2013-03-18 13:23:00,
2013-03-18 09:24:00,30.6,30.6,28.73,South,186,2.2,2.2,100,0.00,,,0.00,VWS V14.01,2013-03-18 13:24:00,
2013-03-18 09:25:00,30.6,30.6,28.73,South,186,2.2,2.2,100,0.00,,,0.00,VWS V14.01,2013-03-18 13:25:00,
2013-03-18 09:28:00,30.6,30.6,28.73,SW,228,6.3,6.3,100,0.00,,,0.00,VWS V14.01,2013-03-18 13:28:00,
2013-03-18 09:30:00,30.6,30.6,28.73,SW,228,6.3,6.3,100,0.00,,,0.00,VWS V14.01,2013-03-18 13:30:00,
2013-03-18 09:33:00,30.7,30.7,28.73,SSW,206,3.6,3.6,100,0.00,,,0.00,VWS V14.01,2013-03-18 13:33:00,
2013-03-18 09:35:00,30.7,30.7,28.73,SSW,209,6.7,6.7,100,0.00,,,0.00,VWS V14.01,2013-03-18 13:35:00,
2013-03-18 09:38:00,30.7,30.7,28.73,South,187,4.5,4.5,100,0.00,,,0.00,VWS V14.01,2013-03-18 13:38:00,
2013-03-18 09:40:00,30.7,30.7,28.73,SW,224,3.6,3.6,100,0.00,,,0.00,VWS V14.01,2013-03-18 13:40:00,
2013-03-18 09:43:00,30.9,30.9,28.73,SW,224,3.6,3.6,100,0.00,,,0.00,VWS V14.01,2013-03-18 13:43:00,
2013-03-18 09:44:00,30.9,30.9,28.73,SW,224,3.6,3.6,100,0.00,,,0.00,VWS V14.01,2013-03-18 13:44:00,
2013-03-18 09:45:00,30.9,30.9,28.73,WSW,249,5.4,5.4,100,0.00,,,0.00,VWS V14.01,2013-03-18 13:45:00,
2013-03-18 09:48:00,30.9,30.9,28.73,SW,218,5.4,5.8,100,0.00,,,0.00,VWS V14.01,2013-03-18 13:48:00,
2013-03-18 09:49:00,30.9,30.9,28.73,SW,218,5.4,5.8,100,0.00,,,0.00,VWS V14.01,2013-03-18 13:49:00,
2013-03-18 09:50:00,30.9,30.9,28.73,SSW,210,5.8,5.8,100,0.00,,,0.00,VWS V14.01,2013-03-18 13:50:00,
2013-03-18 09:53:00,30.9,30.9,28.73,SW,218,6.3,6.3,100,0.00,,,0.00,VWS V14.01,2013-03-18 13:53:00,
2013-03-18 09:54:00,30.9,30.9,28.73,SW,218,6.3,6.3,100,0.00,,,0.00,VWS V14.01,2013-03-18 13:54:00,
2013-03-18 09:55:00,30.9,30.9,28.73,SW,218,6.3,6.3,100,0.00,,,0.00,VWS V14.01,2013-03-18 13:55:00,
2013-03-18 09:58:00,31.1,31.1,28.73,SW,221,5.8,5.8,100,0.00,,,0.00,VWS V14.01,2013-03-18 13:58:00,
2013-03-18 09:59:00,31.1,31.1,28.73,SW,221,5.8,5.8,100,0.00,,,0.00,VWS V14.01,2013-03-18 13:59:00,
2013-03-18 10:00:00,31.1,31.1,28.73,SW,219,4.0,5.8,100,0.00,,,0.00,VWS V14.01,2013-03-18 14:00:00,
2013-03-18 10:01:00,31.1,31.1,28.73,SW,219,4.0,5.8,100,0.00,,,0.00,VWS V14.01,2013-03-18 14:01:00,
2013-03-18 10:04:00,31.1,31.1,28.73,SW,219,4.0,4.0,100,0.00,,,0.00,VWS V14.01,2013-03-18 14:04:00,
2013-03-18 10:05:00,31.1,31.1,28.73,SSW,207,5.8,5.8,100,0.00,,,0.00,VWS V14.01,2013-03-18 14:05:00,
2013-03-18 10:06:00,31.1,31.1,28.73,SSW,207,5.8,5.8,100,0.00,,,0.00,VWS V14.01,2013-03-18 14:06:00,
2013-03-18 10:09:00,31.3,31.3,28.73,SW,223,5.8,5.8,100,0.00,,,0.00,VWS V14.01,2013-03-18 14:09:00,
2013-03-18 10:10:00,31.3,31.3,28.73,SW,220,4.0,4.0,100,0.00,,,0.00,VWS V14.01,2013-03-18 14:10:00,
2013-03-18 10:11:00,31.5,31.5,28.73,SW,220,4.0,4.0,100,0.00,,,0.00,VWS V14.01,2013-03-18 14:11:00,
2013-03-18 10:14:00,31.5,31.5,28.73,West,268,4.0,4.0,100,0.00,,,0.00,VWS V14.01,2013-03-18 14:14:00,
2013-03-18 10:16:00,31.6,31.6,28.73,West,268,4.0,4.0,100,0.00,,,0.00,VWS V14.01,2013-03-18 14:16:00,
2013-03-18 10:19:00,31.6,31.6,28.73,SW,217,4.0,4.0,100,0.00,,,0.00,VWS V14.01,2013-03-18 14:19:00,
2013-03-18 10:22:00,31.6,31.6,28.70,WSW,237,5.4,5.4,100,0.00,,,0.00,VWS V14.01,2013-03-18 14:22:00,
2013-03-18 10:24:00,31.8,31.8,28.70,SW,236,5.4,5.4,100,0.00,,,0.00,VWS V14.01,2013-03-18 14:24:00,
2013-03-18 10:27:00,31.8,31.8,28.70,SW,236,5.4,5.4,100,0.00,,,0.00,VWS V14.01,2013-03-18 14:27:00,
2013-03-18 10:28:00,31.8,31.8,28.70,WSW,240,6.3,6.3,100,0.00,,,0.00,VWS V14.01,2013-03-18 14:28:00,
2013-03-18 10:29:00,31.8,31.8,28.70,SSW,197,3.6,3.6,100,0.00,,,0.00,VWS V14.01,2013-03-18 14:29:00,
2013-03-18 10:32:00,31.8,31.8,28.70,SW,224,4.0,4.0,100,0.00,,,0.00,VWS V14.01,2013-03-18 14:32:00,
2013-03-18 10:33:00,31.8,31.8,28.70,SW,224,4.0,4.0,100,0.00,,,0.00,VWS V14.01,2013-03-18 14:33:00,
2013-03-18 10:34:00,31.8,31.8,28.70,SW,224,4.0,4.0,100,0.00,,,0.00,VWS V14.01,2013-03-18 14:34:00,
2013-03-18 10:37:00,31.8,31.8,28.70,SW,224,4.0,4.0,100,0.00,,,0.00,VWS V14.01,2013-03-18 14:37:00,
2013-03-18 10:38:00,31.8,31.8,28.70,WSW,242,8.3,8.3,100,0.00,,,0.00,VWS V14.01,2013-03-18 14:38:00,
2013-03-18 10:39:00,32.0,32.0,28.70,WSW,242,8.3,8.3,100,0.00,,,0.00,VWS V14.01,2013-03-18 14:39:00,
2013-03-18 10:40:00,32.0,32.0,28.70,SW,222,3.6,8.3,100,0.00,,,0.00,VWS V14.01,2013-03-18 14:40:00,
2013-03-18 10:42:00,32.0,32.0,28.70,SSW,198,3.6,3.6,100,0.00,,,0.00,VWS V14.01,2013-03-18 14:42:00,
2013-03-18 10:43:00,32.0,32.0,28.70,SW,225,4.0,4.0,100,0.00,,,0.00,VWS V14.01,2013-03-18 14:43:00,
2013-03-18 10:45:00,32.0,32.0,28.70,SW,225,4.0,4.0,100,0.00,,,0.00,VWS V14.01,2013-03-18 14:45:00,
2013-03-18 10:47:00,32.0,32.0,28.70,SW,214,5.8,5.8,100,0.00,,,0.00,VWS V14.01,2013-03-18 14:47:00,
2013-03-18 10:48:00,32.0,32.0,28.70,SW,214,5.8,5.8,100,0.00,,,0.00,VWS V14.01,2013-03-18 14:48:00,
2013-03-18 10:50:00,32.0,32.0,28.70,SW,233,8.1,8.1,100,0.00,,,0.00,VWS V14.01,2013-03-18 14:50:00,
2013-03-18 10:52:00,32.2,32.2,28.70,SW,233,8.1,8.1,100,0.00,,,0.00,VWS V14.01,2013-03-18 14:52:00,
2013-03-18 10:53:00,32.2,32.2,28.70,SW,221,5.8,5.8,100,0.00,,,0.00,VWS V14.01,2013-03-18 14:53:00,
2013-03-18 10:55:00,32.2,32.2,28.70,SW,224,7.2,7.2,100,0.00,,,0.00,VWS V14.01,2013-03-18 14:55:00,
2013-03-18 10:57:00,32.2,32.2,28.70,SSW,195,5.8,5.8,100,0.00,,,0.00,VWS V14.01,2013-03-18 14:57:00,
2013-03-18 10:58:00,32.2,32.2,28.70,East,93,6.3,6.3,100,0.00,,,0.00,VWS V14.01,2013-03-18 14:58:00,
2013-03-18 11:00:00,32.2,32.2,28.70,East,93,6.3,6.3,100,0.00,,,0.00,VWS V14.01,2013-03-18 15:00:00,
2013-03-18 11:02:00,32.2,32.2,28.70,WSW,246,4.0,4.0,100,0.00,,,0.00,VWS V14.01,2013-03-18 15:02:00,
2013-03-18 11:03:00,32.2,32.2,28.70,WSW,246,4.0,4.0,100,0.00,,,0.00,VWS V14.01,2013-03-18 15:03:00,
2013-03-18 11:05:00,32.2,32.2,28.70,SSW,202,4.5,4.5,100,0.00,,,0.00,VWS V14.01,2013-03-18 15:05:00,
2013-03-18 11:07:00,32.4,32.4,28.70,SW,221,4.0,4.0,100,0.00,,,0.00,VWS V14.01,2013-03-18 15:07:00,
2013-03-18 11:08:00,32.4,32.4,28.70,SW,221,4.0,4.0,100,0.00,,,0.00,VWS V14.01,2013-03-18 15:08:00,
2013-03-18 11:10:00,32.4,32.4,28.70,SW,221,4.0,4.0,100,0.00,,,0.00,VWS V14.01,2013-03-18 15:10:00,
2013-03-18 11:13:00,32.5,32.5,28.70,SSW,211,4.0,4.0,100,0.00,,,0.00,VWS V14.01,2013-03-18 15:13:00,
2013-03-18 11:15:00,32.5,32.5,28.70,SW,218,4.0,8.3,100,0.00,,,0.00,VWS V14.01,2013-03-18 15:15:00,
2013-03-18 11:18:00,32.5,32.5,28.70,SW,218,4.0,4.0,100,0.00,,,0.00,VWS V14.01,2013-03-18 15:18:00,
2013-03-18 11:20:00,32.5,32.5,28.70,SSW,211,3.6,4.0,100,0.00,,,0.00,VWS V14.01,2013-03-18 15:20:00,
2013-03-18 11:23:00,32.5,32.5,28.70,SSW,211,3.6,3.6,100,0.00,,,0.00,VWS V14.01,2013-03-18 15:23:00,
2013-03-18 11:25:00,32.7,32.7,28.70,SSW,213,5.4,5.4,100,0.00,,,0.00,VWS V14.01,2013-03-18 15:25:00,
2013-03-18 11:26:00,32.7,32.7,28.70,SSW,213,5.4,5.4,100,0.00,,,0.00,VWS V14.01,2013-03-18 15:26:00,
2013-03-18 11:28:00,32.7,32.7,28.70,SW,220,5.4,5.4,100,0.00,,,0.00,VWS V14.01,2013-03-18 15:28:00,
2013-03-18 11:31:00,32.7,32.7,28.70,SW,221,3.1,3.1,100,0.00,,,0.00,VWS V14.01,2013-03-18 15:31:00,
2013-03-18 11:33:00,32.7,32.7,28.70,SW,227,5.4,5.4,100,0.00,,,0.00,VWS V14.01,2013-03-18 15:33:00,
2013-03-18 11:34:00,32.7,32.7,28.70,WSW,257,4.0,5.4,100,0.00,,,0.00,VWS V14.01,2013-03-18 15:34:00,
2013-03-18 11:36:00,32.7,32.7,28.70,WSW,257,4.0,4.0,100,0.00,,,0.00,VWS V14.01,2013-03-18 15:36:00,
2013-03-18 11:39:00,32.7,32.7,28.70,WSW,244,3.6,4.0,100,0.00,,,0.00,VWS V14.01,2013-03-18 15:39:00,
2013-03-18 11:41:00,32.7,32.7,28.70,SSW,193,5.8,5.8,100,0.00,,,0.00,VWS V14.01,2013-03-18 15:41:00,
2013-03-18 11:44:00,32.9,32.9,28.70,SSW,193,5.8,5.8,100,0.00,,,0.00,VWS V14.01,2013-03-18 15:44:00,
2013-03-18 11:46:00,32.9,32.9,28.70,SSW,193,5.8,5.8,100,0.00,,,0.00,VWS V14.01,2013-03-18 15:46:00,
2013-03-18 11:47:00,32.9,32.9,28.70,South,191,5.4,5.8,100,0.00,,,0.00,VWS V14.01,2013-03-18 15:47:00,
2013-03-18 11:49:00,33.1,33.1,28.70,SW,232,5.4,5.4,100,0.00,,,0.00,VWS V14.01,2013-03-18 15:49:00,
2013-03-18 11:52:00,33.1,33.1,28.70,SSW,211,6.3,6.3,100,0.00,,,0.00,VWS V14.01,2013-03-18 15:52:00,
2013-03-18 11:54:00,33.1,33.1,28.67,SSW,211,6.3,6.3,100,0.00,,,0.00,VWS V14.01,2013-03-18 15:54:00,
2013-03-18 11:57:00,33.1,33.1,28.67,SW,222,5.8,5.8,100,0.00,,,0.00,VWS V14.01,2013-03-18 15:57:00,
2013-03-18 11:59:00,33.1,33.1,28.67,SW,230,3.6,3.6,100,0.00,,,0.00,VWS V14.01,2013-03-18 15:59:00,
2013-03-18 12:02:00,33.1,33.1,28.67,SW,219,4.9,4.9,100,0.00,,,0.00,VWS V14.01,2013-03-18 16:02:00,
2013-03-18 12:04:00,33.1,33.1,28.67,SW,219,4.9,4.9,100,0.00,,,0.00,VWS V14.01,2013-03-18 16:04:00,
2013-03-18 12:05:00,33.1,33.1,28.67,WSW,245,4.5,4.9,100,0.00,,,0.00,VWS V14.01,2013-03-18 16:05:00,
2013-03-18 12:07:00,33.1,33.1,28.67,SW,229,5.8,5.8,100,0.00,,,0.00,VWS V14.01,2013-03-18 16:07:00,
2013-03-18 12:09:00,33.1,33.1,28.70,SW,229,5.8,5.8,100,0.00,,,0.00,VWS V14.01,2013-03-18 16:09:00,
2013-03-18 12:10:00,33.1,33.1,28.70,SW,229,5.8,5.8,100,0.00,,,0.00,VWS V14.01,2013-03-18 16:10:00,
2013-03-18 12:12:00,33.3,33.3,28.70,SW,229,5.8,5.8,100,0.00,,,0.00,VWS V14.01,2013-03-18 16:12:00,
2013-03-18 12:13:00,33.3,33.3,28.70,SW,229,5.8,5.8,100,0.00,,,0.00,VWS V14.01,2013-03-18 16:13:00,
2013-03-18 12:14:00,33.3,33.3,28.70,SW,217,6.3,6.3,100,0.00,,,0.00,VWS V14.01,2013-03-18 16:14:00,
2013-03-18 12:15:00,33.3,33.3,28.70,SW,217,6.3,6.3,100,0.00,,,0.00,VWS V14.01,2013-03-18 16:15:00,
2013-03-18 12:17:00,33.3,33.3,28.70,SW,217,6.3,6.3,100,0.00,,,0.00,VWS V14.01,2013-03-18 16:17:00,
2013-03-18 12:18:00,33.3,33.3,28.70,SW,217,6.3,6.3,100,0.00,,,0.00,VWS V14.01,2013-03-18 16:18:00,
2013-03-18 12:19:00,33.3,33.3,28.70,SSW,200,5.4,5.4,100,0.00,,,0.00,VWS V14.01,2013-03-18 16:19:00,
2013-03-18 12:20:00,33.3,33.3,28.70,SSW,200,5.4,5.4,100,0.00,,,0.00,VWS V14.01,2013-03-18 16:20:00,
2013-03-18 12:22:00,33.3,33.3,28.70,SSW,211,5.8,5.8,100,0.00,,,0.00,VWS V14.01,2013-03-18 16:22:00,
2013-03-18 12:23:00,33.3,33.3,28.70,SSW,211,5.8,5.8,100,0.00,,,0.00,VWS V14.01,2013-03-18 16:23:00,
2013-03-18 12:24:00,33.3,33.3,28.70,South,188,6.3,6.3,100,0.00,,,0.00,VWS V14.01,2013-03-18 16:24:00,
2013-03-18 12:25:00,33.3,33.3,28.70,South,188,6.3,6.3,100,0.00,,,0.00,VWS V14.01,2013-03-18 16:25:00,
2013-03-18 12:27:00,33.4,33.4,28.70,SW,222,3.6,3.6,100,0.00,,,0.00,VWS V14.01,2013-03-18 16:27:00,
2013-03-18 12:28:00,33.4,33.4,28.70,SW,222,3.6,3.6,100,0.00,,,0.00,VWS V14.01,2013-03-18 16:28:00,
2013-03-18 12:30:00,33.4,33.4,28.70,SW,222,3.6,3.6,100,0.00,,,0.00,VWS V14.01,2013-03-18 16:30:00,
2013-03-18 12:32:00,33.4,33.4,28.70,SW,217,3.6,4.9,100,0.00,,,0.00,VWS V14.01,2013-03-18 16:32:00,
2013-03-18 12:33:00,33.4,33.4,28.70,SW,217,3.6,4.9,100,0.00,,,0.00,VWS V14.01,2013-03-18 16:33:00,
2013-03-18 12:35:00,33.6,33.6,28.70,SW,226,4.9,4.9,100,0.00,,,0.00,VWS V14.01,2013-03-18 16:35:00,
2013-03-18 12:38:00,33.6,33.6,28.70,SW,226,4.9,4.9,100,0.00,,,0.00,VWS V14.01,2013-03-18 16:38:00,
2013-03-18 12:40:00,33.8,33.8,28.70,SW,226,4.9,4.9,100,0.00,,,0.00,VWS V14.01,2013-03-18 16:40:00,
2013-03-18 12:43:00,33.8,33.8,28.67,SW,216,6.3,6.3,100,0.00,,,0.00,VWS V14.01,2013-03-18 16:43:00,
2013-03-18 12:45:00,33.8,33.8,28.67,SW,219,5.8,6.3,100,0.00,,,0.00,VWS V14.01,2013-03-18 16:45:00,
2013-03-18 12:48:00,34.0,34.0,28.67,WSW,246,7.2,7.2,100,0.00,,,0.00,VWS V14.01,2013-03-18 16:48:00,
2013-03-18 12:50:00,34.0,34.0,28.67,SW,236,5.4,5.4,100,0.00,,,0.00,VWS V14.01,2013-03-18 16:50:00,
2013-03-18 12:53:00,34.0,34.0,28.67,SW,236,5.4,5.4,100,0.00,,,0.00,VWS V14.01,2013-03-18 16:53:00,
2013-03-18 12:55:00,34.0,34.0,28.67,SW,231,6.3,6.3,100,0.00,,,0.00,VWS V14.01,2013-03-18 16:55:00,
2013-03-18 12:58:00,34.0,34.0,28.67,SW,234,5.8,5.8,100,0.00,,,0.00,VWS V14.01,2013-03-18 16:58:00,
2013-03-18 13:00:00,34.0,34.0,28.67,SW,234,5.8,5.8,100,0.00,,,0.00,VWS V14.01,2013-03-18 17:00:00,
2013-03-18 13:03:00,34.0,34.0,28.67,SW,234,5.8,5.8,100,0.00,,,0.00,VWS V14.01,2013-03-18 17:03:00,
2013-03-18 13:05:00,34.0,34.0,28.67,SW,224,5.4,5.4,100,0.00,,,0.00,VWS V14.01,2013-03-18 17:05:00,
2013-03-18 13:08:00,34.3,34.3,28.64,South,177,5.4,5.4,100,0.00,,,0.00,VWS V14.01,2013-03-18 17:08:00,
2013-03-18 13:10:00,34.3,34.3,28.64,South,177,5.4,5.4,100,0.00,,,0.00,VWS V14.01,2013-03-18 17:10:00,
2013-03-18 13:13:00,34.5,34.5,28.64,WSW,242,5.8,5.8,100,0.00,,,0.00,VWS V14.01,2013-03-18 17:13:00,
2013-03-18 13:15:00,34.5,34.5,28.64,WSW,242,5.8,5.8,100,0.00,,,0.00,VWS V14.01,2013-03-18 17:15:00,
2013-03-18 13:19:00,34.7,34.7,28.64,SW,219,7.2,7.2,100,0.00,,,0.00,VWS V14.01,2013-03-18 17:19:00,
2013-03-18 13:20:00,34.7,34.7,28.64,SW,222,3.1,3.1,100,0.00,,,0.00,VWS V14.01,2013-03-18 17:20:00,
2013-03-18 13:24:00,34.9,34.9,28.64,WSW,254,2.2,2.2,100,0.00,,,0.00,VWS V14.01,2013-03-18 17:24:00,
2013-03-18 13:25:00,34.9,34.9,28.64,West,266,3.6,3.6,100,0.00,,,0.00,VWS V14.01,2013-03-18 17:25:00,
2013-03-18 13:26:00,34.9,34.9,28.64,West,266,3.6,3.6,100,0.00,,,0.00,VWS V14.01,2013-03-18 17:26:00,
2013-03-18 13:29:00,34.9,34.9,28.64,SW,233,3.6,3.6,100,0.00,,,0.00,VWS V14.01,2013-03-18 17:29:00,
2013-03-18 13:30:00,34.9,34.9,28.64,SW,233,3.6,3.6,100,0.00,,,0.00,VWS V14.01,2013-03-18 17:30:00,
2013-03-18 13:31:00,34.9,34.9,28.64,SW,233,3.6,3.6,100,0.00,,,0.00,VWS V14.01,2013-03-18 17:31:00,
2013-03-18 13:34:00,34.9,34.9,28.64,WSW,244,5.4,5.4,100,0.00,,,0.00,VWS V14.01,2013-03-18 17:34:00,
2013-03-18 13:35:00,34.9,34.9,28.64,WSW,244,5.4,5.4,100,0.00,,,0.00,VWS V14.01,2013-03-18 17:35:00,
2013-03-18 13:36:00,34.9,34.9,28.67,WSW,244,5.4,5.4,100,0.00,,,0.00,VWS V14.01,2013-03-18 17:36:00,
2013-03-18 13:37:00,34.9,34.9,28.67,WSW,244,5.4,5.4,100,0.00,,,0.00,VWS V14.01,2013-03-18 17:37:00,
2013-03-18 13:40:00,34.9,34.9,28.67,SW,232,5.4,5.4,100,0.00,,,0.00,VWS V14.01,2013-03-18 17:40:00,
2013-03-18 13:41:00,34.9,34.9,28.67,SW,230,5.8,5.8,100,0.00,,,0.00,VWS V14.01,2013-03-18 17:41:00,
2013-03-18 13:42:00,34.9,34.9,28.67,SW,230,5.8,5.8,100,0.00,,,0.00,VWS V14.01,2013-03-18 17:42:00,
2013-03-18 13:45:00,35.1,35.1,28.67,SW,230,5.8,5.8,100,0.00,,,0.00,VWS V14.01,2013-03-18 17:45:00,
2013-03-18 13:46:00,35.1,35.1,28.67,SW,230,5.8,5.8,100,0.00,,,0.00,VWS V14.01,2013-03-18 17:46:00,
2013-03-18 13:47:00,35.1,35.1,28.67,SW,226,4.0,4.0,100,0.00,,,0.00,VWS V14.01,2013-03-18 17:47:00,
2013-03-18 13:50:00,35.1,35.1,28.67,SW,236,3.6,4.0,100,0.00,,,0.00,VWS V14.01,2013-03-18 17:50:00,
2013-03-18 13:51:00,35.1,35.1,28.67,SW,223,3.1,3.6,100,0.00,,,0.00,VWS V14.01,2013-03-18 17:51:00,
2013-03-18 13:52:00,35.1,35.1,28.67,SW,223,3.1,3.6,100,0.00,,,0.00,VWS V14.01,2013-03-18 17:52:00,
2013-03-18 13:55:00,35.2,35.2,28.64,SW,223,3.1,3.1,100,0.00,,,0.00,VWS V14.01,2013-03-18 17:55:00,
2013-03-18 13:56:00,35.2,35.2,28.64,SW,223,3.1,3.1,100,0.00,,,0.00,VWS V14.01,2013-03-18 17:56:00,
2013-03-18 13:57:00,35.2,35.2,28.64,SW,223,3.1,3.1,100,0.00,,,0.00,VWS V14.01,2013-03-18 17:57:00,
2013-03-18 13:58:00,35.2,35.2,28.64,SW,223,3.1,3.1,100,0.00,,,0.00,VWS V14.01,2013-03-18 17:58:00,
2013-03-18 14:00:00,35.2,35.2,28.64,WSW,246,2.7,3.1,100,0.00,,,0.00,VWS V14.01,2013-03-18 18:00:00,
2013-03-18 14:01:00,35.2,35.2,28.64,WSW,246,2.7,2.7,100,0.00,,,0.00,VWS V14.01,2013-03-18 18:01:00,
2013-03-18 14:02:00,35.2,35.2,28.64,WSW,246,2.7,2.7,100,0.04,,,0.04,VWS V14.01,2013-03-18 18:02:00,
2013-03-18 14:03:00,35.4,35.4,28.64,WSW,246,2.7,2.7,100,0.04,,,0.04,VWS V14.01,2013-03-18 18:03:00,
2013-03-18 14:05:00,35.4,35.4,28.64,WSW,249,4.0,4.0,100,0.04,,,0.04,VWS V14.01,2013-03-18 18:05:00,
2013-03-18 14:07:00,35.4,35.4,28.64,WSW,249,0.0,0.0,100,0.04,,,0.04,VWS V14.01,2013-03-18 18:07:00,
2013-03-18 14:08:00,35.4,35.4,28.64,SW,221,4.5,4.5,100,0.04,,,0.04,VWS V14.01,2013-03-18 18:08:00,
2013-03-18 14:10:00,35.4,35.4,28.64,SW,221,4.5,4.5,100,0.04,,,0.04,VWS V14.01,2013-03-18 18:10:00,
2013-03-18 14:12:00,35.4,35.4,28.64,SSW,210,4.0,4.0,100,0.04,,,0.04,VWS V14.01,2013-03-18 18:12:00,
2013-03-18 14:13:00,35.4,35.4,28.64,SW,234,5.4,5.4,100,0.04,,,0.04,VWS V14.01,2013-03-18 18:13:00,
2013-03-18 14:15:00,35.4,35.4,28.64,SW,233,5.8,5.8,100,0.04,,,0.04,VWS V14.01,2013-03-18 18:15:00,
2013-03-18 14:17:00,35.4,35.4,28.64,SW,233,4.0,4.0,100,0.04,,,0.04,VWS V14.01,2013-03-18 18:17:00,
2013-03-18 14:18:00,35.4,35.4,28.64,WSW,242,5.4,5.4,100,0.04,,,0.04,VWS V14.01,2013-03-18 18:18:00,
2013-03-18 14:20:00,35.4,35.4,28.64,WSW,242,5.4,5.4,100,0.04,,,0.04,VWS V14.01,2013-03-18 18:20:00,
2013-03-18 14:22:00,35.4,35.4,28.64,WSW,242,5.4,5.4,100,0.04,,,0.04,VWS V14.01,2013-03-18 18:22:00,
2013-03-18 14:23:00,35.4,35.4,28.64,WSW,242,5.4,5.4,100,0.04,,,0.04,VWS V14.01,2013-03-18 18:23:00,
2013-03-18 14:25:00,35.4,35.4,28.61,WSW,243,3.6,3.6,100,0.04,,,0.04,VWS V14.01,2013-03-18 18:25:00,
2013-03-18 14:27:00,35.6,35.6,28.61,WSW,239,4.0,4.0,100,0.04,,,0.04,VWS V14.01,2013-03-18 18:27:00,
2013-03-18 14:28:00,35.6,35.6,28.61,WSW,239,4.0,4.0,100,0.04,,,0.04,VWS V14.01,2013-03-18 18:28:00,
2013-03-18 14:30:00,35.6,35.6,28.61,WSW,239,4.0,4.0,100,0.04,,,0.04,VWS V14.01,2013-03-18 18:30:00,
2013-03-18 14:32:00,35.6,35.6,28.61,WSW,237,7.6,7.6,100,0.04,,,0.04,VWS V14.01,2013-03-18 18:32:00,
2013-03-18 14:33:00,35.6,35.6,28.61,SW,225,2.7,2.7,100,0.04,,,0.04,VWS V14.01,2013-03-18 18:33:00,
2013-03-18 14:34:00,35.6,35.6,28.61,SW,225,2.7,2.7,100,0.04,,,0.04,VWS V14.01,2013-03-18 18:34:00,
2013-03-18 14:35:00,35.8,35.8,28.61,SW,225,2.7,2.7,100,0.04,,,0.04,VWS V14.01,2013-03-18 18:35:00,
2013-03-18 14:37:00,35.8,35.8,28.61,SW,225,2.7,2.7,100,0.04,,,0.04,VWS V14.01,2013-03-18 18:37:00,
2013-03-18 14:38:00,35.8,35.8,28.61,SW,225,2.7,2.7,100,0.04,,,0.04,VWS V14.01,2013-03-18 18:38:00,
2013-03-18 14:39:00,35.8,35.8,28.61,SW,225,2.7,2.7,100,0.04,,,0.04,VWS V14.01,2013-03-18 18:39:00,
2013-03-18 14:40:00,35.8,35.8,28.61,WSW,238,3.6,3.6,100,0.04,,,0.04,VWS V14.01,2013-03-18 18:40:00,
2013-03-18 14:42:00,35.8,35.8,28.59,WSW,251,3.6,3.6,100,0.04,,,0.04,VWS V14.01,2013-03-18 18:42:00,
2013-03-18 14:43:00,35.8,35.8,28.59,WNW,294,3.1,3.6,100,0.04,,,0.04,VWS V14.01,2013-03-18 18:43:00,
2013-03-18 14:44:00,35.8,35.8,28.59,WNW,294,3.1,3.1,100,0.04,,,0.04,VWS V14.01,2013-03-18 18:44:00,
2013-03-18 14:45:00,35.6,35.6,28.59,West,276,4.9,4.9,100,0.04,,,0.04,VWS V14.01,2013-03-18 18:45:00,
2013-03-18 14:47:00,35.6,35.6,28.59,WNW,294,3.6,3.6,100,0.04,,,0.04,VWS V14.01,2013-03-18 18:47:00,
2013-03-18 14:48:00,35.6,35.6,28.59,WSW,256,0.0,0.0,100,0.04,,,0.04,VWS V14.01,2013-03-18 18:48:00,
2013-03-18 14:49:00,35.6,35.6,28.59,WSW,256,2.2,2.2,100,0.04,,,0.04,VWS V14.01,2013-03-18 18:49:00,
2013-03-18 14:50:00,35.6,35.6,28.59,WSW,256,2.7,2.7,100,0.04,,,0.04,VWS V14.01,2013-03-18 18:50:00,
2013-03-18 14:53:00,35.6,35.6,28.59,WSW,256,2.7,2.7,100,0.04,,,0.04,VWS V14.01,2013-03-18 18:53:00,
2013-03-18 14:54:00,35.2,35.2,28.59,West,262,3.6,3.6,100,0.04,,,0.04,VWS V14.01,2013-03-18 18:54:00,
2013-03-18 14:55:00,35.2,35.2,28.64,West,263,0.0,0.0,100,0.04,,,0.04,VWS V14.01,2013-03-18 18:55:00,
2013-03-18 14:58:00,35.2,35.2,28.64,WNW,294,3.6,3.6,100,0.04,,,0.04,VWS V14.01,2013-03-18 18:58:00,
2013-03-18 14:59:00,35.2,35.2,28.64,NW,322,3.1,3.1,100,0.04,,,0.04,VWS V14.01,2013-03-18 18:59:00,
2013-03-18 15:00:00,35.2,35.2,28.64,NW,322,3.1,3.1,100,0.04,,,0.04,VWS V14.01,2013-03-18 19:00:00,
2013-03-18 15:03:00,35.1,35.1,28.64,WNW,283,3.1,3.1,100,0.00,,,0.04,VWS V14.01,2013-03-18 19:03:00,
2013-03-18 15:04:00,35.1,35.1,28.64,WNW,283,3.1,3.1,100,0.00,,,0.04,VWS V14.01,2013-03-18 19:04:00,
2013-03-18 15:05:00,35.1,35.1,28.64,WSW,240,3.6,3.6,100,0.00,,,0.04,VWS V14.01,2013-03-18 19:05:00,
2013-03-18 15:08:00,35.1,35.1,28.64,NW,323,4.5,4.9,100,0.00,,,0.04,VWS V14.01,2013-03-18 19:08:00,
2013-03-18 15:09:00,35.1,35.1,28.61,NW,321,2.7,2.7,100,0.00,,,0.04,VWS V14.01,2013-03-18 19:09:00,
2013-03-18 15:10:00,35.1,35.1,28.61,NW,321,2.7,2.7,100,0.00,,,0.04,VWS V14.01,2013-03-18 19:10:00,
2013-03-18 15:13:00,35.1,35.1,28.61,NW,310,2.2,2.2,100,0.00,,,0.04,VWS V14.01,2013-03-18 19:13:00,
2013-03-18 15:14:00,35.1,35.1,28.61,NW,310,2.2,2.2,100,0.00,,,0.04,VWS V14.01,2013-03-18 19:14:00,
2013-03-18 15:16:00,35.1,35.1,28.61,NW,314,0.0,2.2,100,0.00,,,0.04,VWS V14.01,2013-03-18 19:16:00,
2013-03-18 15:18:00,35.1,35.1,28.61,NW,314,2.2,2.2,100,0.00,,,0.04,VWS V14.01,2013-03-18 19:18:00,
2013-03-18 15:19:00,35.1,35.1,28.61,NW,314,2.2,2.2,100,0.00,,,0.04,VWS V14.01,2013-03-18 19:19:00,
2013-03-18 15:21:00,35.1,35.1,28.64,NW,313,0.0,0.0,100,0.00,,,0.04,VWS V14.01,2013-03-18 19:21:00,
2013-03-18 15:23:00,35.1,35.1,28.64,NW,313,0.0,0.0,100,0.00,,,0.04,VWS V14.01,2013-03-18 19:23:00,
2013-03-18 15:24:00,35.1,35.1,28.64,NW,313,0.0,0.0,100,0.00,,,0.04,VWS V14.01,2013-03-18 19:24:00,
2013-03-18 15:26:00,35.1,35.1,28.64,NW,313,0.0,0.0,100,0.00,,,0.04,VWS V14.01,2013-03-18 19:26:00,
2013-03-18 15:28:00,35.1,35.1,28.64,NW,312,0.0,2.7,100,0.00,,,0.04,VWS V14.01,2013-03-18 19:28:00,
2013-03-18 15:29:00,35.1,35.1,28.64,NW,312,0.0,2.7,100,0.00,,,0.04,VWS V14.01,2013-03-18 19:29:00,
2013-03-18 15:32:00,35.1,35.1,28.64,NW,312,0.0,0.0,100,0.00,,,0.04,VWS V14.01,2013-03-18 19:32:00,
2013-03-18 15:34:00,35.1,35.1,28.64,NW,312,0.0,0.0,100,0.00,,,0.04,VWS V14.01,2013-03-18 19:34:00,
2013-03-18 15:35:00,35.1,35.1,28.64,NW,312,0.0,0.0,100,0.00,,,0.04,VWS V14.01,2013-03-18 19:35:00,
2013-03-18 15:37:00,35.1,35.1,28.64,NW,312,0.0,0.0,100,0.00,,,0.04,VWS V14.01,2013-03-18 19:37:00,
2013-03-18 15:39:00,35.1,35.1,28.64,NW,312,0.0,2.7,100,0.00,,,0.04,VWS V14.01,2013-03-18 19:39:00,
2013-03-18 15:40:00,35.1,35.1,28.64,NW,312,0.0,0.0,100,0.00,,,0.04,VWS V14.01,2013-03-18 19:40:00,
2013-03-18 15:42:00,35.1,35.1,28.61,NW,312,0.0,0.0,100,0.00,,,0.04,VWS V14.01,2013-03-18 19:42:00,
2013-03-18 15:44:00,35.2,35.2,28.61,NW,312,2.2,2.2,100,0.00,,,0.04,VWS V14.01,2013-03-18 19:44:00,
2013-03-18 15:45:00,35.2,35.2,28.61,NW,312,0.0,0.0,100,0.00,,,0.04,VWS V14.01,2013-03-18 19:45:00,
2013-03-18 15:47:00,35.2,35.2,28.61,NW,315,2.7,2.7,100,0.00,,,0.04,VWS V14.01,2013-03-18 19:47:00,
2013-03-18 15:49:00,35.2,35.2,28.61,NW,315,3.6,3.6,100,0.00,,,0.04,VWS V14.01,2013-03-18 19:49:00,
2013-03-18 15:50:00,35.2,35.2,28.61,NW,315,3.6,3.6,100,0.00,,,0.04,VWS V14.01,2013-03-18 19:50:00,
2013-03-18 15:52:00,35.2,35.2,28.61,NW,316,0.0,0.0,100,0.00,,,0.04,VWS V14.01,2013-03-18 19:52:00,
2013-03-18 15:54:00,35.1,35.1,28.64,NW,316,0.0,0.0,100,0.00,,,0.04,VWS V14.01,2013-03-18 19:54:00,
2013-03-18 15:55:00,35.1,35.1,28.64,NNW,329,3.6,3.6,100,0.00,,,0.04,VWS V14.01,2013-03-18 19:55:00,
2013-03-18 15:57:00,35.1,35.1,28.64,NNW,329,3.6,3.6,100,0.00,,,0.04,VWS V14.01,2013-03-18 19:57:00,
2013-03-18 15:59:00,35.1,35.1,28.64,NNW,329,3.1,3.1,100,0.00,,,0.04,VWS V14.01,2013-03-18 19:59:00,
2013-03-18 16:00:00,35.1,35.1,28.64,NNW,329,2.7,3.1,100,0.00,,,0.04,VWS V14.01,2013-03-18 20:00:00,
2013-03-18 16:02:00,35.2,35.2,28.64,NNW,329,3.1,3.1,100,0.00,,,0.04,VWS V14.01,2013-03-18 20:02:00,
2013-03-18 16:04:00,35.2,35.2,28.64,NNW,329,3.1,3.1,100,0.00,,,0.04,VWS V14.01,2013-03-18 20:04:00,
2013-03-18 16:05:00,35.2,35.2,28.64,NNW,329,3.6,3.6,100,0.00,,,0.04,VWS V14.01,2013-03-18 20:05:00,
2013-03-18 16:07:00,35.4,35.4,28.64,NNW,330,3.6,3.6,100,0.00,,,0.04,VWS V14.01,2013-03-18 20:07:00,
2013-03-18 16:09:00,35.4,35.4,28.64,NNW,330,0.0,0.0,100,0.00,,,0.04,VWS V14.01,2013-03-18 20:09:00,
2013-03-18 16:10:00,35.4,35.4,28.64,NNW,330,0.0,0.0,100,0.00,,,0.04,VWS V14.01,2013-03-18 20:10:00,
2013-03-18 16:11:00,35.4,35.4,28.64,NNW,330,0.0,0.0,100,0.00,,,0.04,VWS V14.01,2013-03-18 20:11:00,
2013-03-18 16:12:00,35.4,35.4,28.64,North,357,2.7,2.7,100,0.00,,,0.04,VWS V14.01,2013-03-18 20:12:00,
2013-03-18 16:14:00,35.4,35.4,28.64,North,357,2.7,3.6,100,0.00,,,0.04,VWS V14.01,2013-03-18 20:14:00,
2013-03-18 16:15:00,35.4,35.4,28.64,North,357,2.2,2.7,100,0.00,,,0.04,VWS V14.01,2013-03-18 20:15:00,
2013-03-18 16:16:00,35.4,35.4,28.64,North,357,2.2,2.2,100,0.00,,,0.04,VWS V14.01,2013-03-18 20:16:00,
2013-03-18 16:18:00,35.4,35.4,28.64,North,357,3.1,3.6,100,0.00,,,0.04,VWS V14.01,2013-03-18 20:18:00,
2013-03-18 16:19:00,35.4,35.4,28.64,North,357,3.1,3.1,100,0.00,,,0.04,VWS V14.01,2013-03-18 20:19:00,
2013-03-18 16:20:00,35.6,35.6,28.64,North,357,5.8,5.8,100,0.00,,,0.04,VWS V14.01,2013-03-18 20:20:00,
2013-03-18 16:21:00,35.6,35.6,28.64,North,357,5.8,5.8,100,0.00,,,0.04,VWS V14.01,2013-03-18 20:21:00,
2013-03-18 16:23:00,35.6,35.6,28.64,NNW,333,2.7,2.7,100,0.00,,,0.04,VWS V14.01,2013-03-18 20:23:00,
2013-03-18 16:24:00,35.6,35.6,28.64,NNW,330,2.7,2.7,100,0.00,,,0.04,VWS V14.01,2013-03-18 20:24:00,
2013-03-18 16:26:00,35.6,35.6,28.64,NNW,338,4.0,4.0,100,0.00,,,0.04,VWS V14.01,2013-03-18 20:26:00,
2013-03-18 16:28:00,35.6,35.6,28.61,North,357,3.1,4.0,100,0.00,,,0.04,VWS V14.01,2013-03-18 20:28:00,
2013-03-18 16:29:00,35.6,35.6,28.61,North,357,3.1,4.0,100,0.00,,,0.04,VWS V14.01,2013-03-18 20:29:00,
2013-03-18 16:31:00,35.6,35.6,28.61,North,357,3.1,3.1,100,0.00,,,0.04,VWS V14.01,2013-03-18 20:31:00,
2013-03-18 16:34:00,35.6,35.6,28.61,NW,313,3.6,3.6,100,0.00,,,0.04,VWS V14.01,2013-03-18 20:34:00,
2013-03-18 16:36:00,36.0,36.0,28.61,NW,313,3.1,3.1,100,0.00,,,0.04,VWS V14.01,2013-03-18 20:36:00,
2013-03-18 16:37:00,36.0,36.0,28.61,NW,313,3.1,3.1,100,0.00,,,0.04,VWS V14.01,2013-03-18 20:37:00,
2013-03-18 16:39:00,36.0,36.0,28.61,North,357,5.4,5.4,100,0.00,,,0.04,VWS V14.01,2013-03-18 20:39:00,
2013-03-18 16:41:00,36.0,36.0,28.61,North,0,3.1,6.3,100,0.00,,,0.04,VWS V14.01,2013-03-18 20:41:00,
2013-03-18 16:42:00,36.0,36.0,28.61,North,0,3.1,6.3,100,0.00,,,0.04,VWS V14.01,2013-03-18 20:42:00,
2013-03-18 16:44:00,36.0,36.0,28.61,NNW,340,5.4,5.4,100,0.00,,,0.04,VWS V14.01,2013-03-18 20:44:00,
2013-03-18 16:47:00,36.0,36.0,28.61,North,357,6.3,6.3,100,0.00,,,0.04,VWS V14.01,2013-03-18 20:47:00,
2013-03-18 16:49:00,36.0,36.0,28.61,North,0,5.4,5.4,100,0.00,,,0.04,VWS V14.01,2013-03-18 20:49:00,
2013-03-18 16:52:00,36.0,36.0,28.64,NNW,333,3.1,5.4,100,0.00,,,0.04,VWS V14.01,2013-03-18 20:52:00,
2013-03-18 16:55:00,36.1,36.1,28.64,North,0,5.4,5.4,100,0.00,,,0.04,VWS V14.01,2013-03-18 20:55:00,
2013-03-18 16:57:00,36.1,36.1,28.64,North,0,5.4,5.4,100,0.00,,,0.04,VWS V14.01,2013-03-18 20:57:00,
2013-03-18 16:58:00,36.1,36.1,28.64,NW,323,5.8,5.8,100,0.00,,,0.04,VWS V14.01,2013-03-18 20:58:00,
2013-03-18 17:00:00,36.1,36.1,28.64,North,0,8.1,8.1,100,0.00,,,0.04,VWS V14.01,2013-03-18 21:00:00,
2013-03-18 17:02:00,36.1,36.1,28.64,North,7,8.7,8.7,100,0.00,,,0.04,VWS V14.01,2013-03-18 21:02:00,
2013-03-18 17:03:00,36.1,36.1,28.64,North,7,8.7,8.7,100,0.00,,,0.04,VWS V14.01,2013-03-18 21:03:00,
2013-03-18 17:05:00,36.1,36.1,28.64,North,2,8.1,8.7,100,0.00,,,0.04,VWS V14.01,2013-03-18 21:05:00,
2013-03-18 17:07:00,36.1,36.1,28.64,North,349,8.1,8.1,100,0.00,,,0.04,VWS V14.01,2013-03-18 21:07:00,
2013-03-18 17:08:00,36.3,36.3,28.64,North,349,8.1,8.1,100,0.00,,,0.04,VWS V14.01,2013-03-18 21:08:00,
2013-03-18 17:10:00,36.3,36.3,28.64,North,357,8.3,8.3,100,0.00,,,0.04,VWS V14.01,2013-03-18 21:10:00,
2013-03-18 17:12:00,36.3,36.3,28.64,NNW,341,5.8,5.8,100,0.00,,,0.04,VWS V14.01,2013-03-18 21:12:00,
2013-03-18 17:13:00,36.3,36.3,28.64,NNW,341,5.8,5.8,100,0.00,,,0.04,VWS V14.01,2013-03-18 21:13:00,
2013-03-18 17:15:00,36.3,36.3,28.64,North,6,8.7,8.7,100,0.00,,,0.04,VWS V14.01,2013-03-18 21:15:00,
2013-03-18 17:17:00,36.5,36.5,28.64,North,6,8.7,8.7,100,0.00,,,0.04,VWS V14.01,2013-03-18 21:17:00,
2013-03-18 17:18:00,36.5,36.5,28.64,North,6,8.7,8.7,100,0.00,,,0.04,VWS V14.01,2013-03-18 21:18:00,
2013-03-18 17:20:00,36.5,36.5,28.64,North,353,7.6,7.6,100,0.00,,,0.04,VWS V14.01,2013-03-18 21:20:00,
2013-03-18 17:22:00,36.5,36.5,28.64,North,5,8.7,11.4,100,0.00,,,0.04,VWS V14.01,2013-03-18 21:22:00,
2013-03-18 17:23:00,36.5,36.5,28.64,North,5,8.7,8.7,100,0.00,,,0.04,VWS V14.01,2013-03-18 21:23:00,
2013-03-18 17:25:00,36.5,36.5,28.64,North,1,10.1,10.1,100,0.00,,,0.04,VWS V14.01,2013-03-18 21:25:00,
2013-03-18 17:27:00,36.7,36.7,28.64,North,1,10.1,10.1,100,0.00,,,0.04,VWS V14.01,2013-03-18 21:27:00,
2013-03-18 17:28:00,36.7,36.7,28.64,North,1,10.1,10.1,100,0.00,,,0.04,VWS V14.01,2013-03-18 21:28:00,
2013-03-18 17:30:00,36.7,36.7,28.64,North,8,9.6,9.6,100,0.00,,,0.04,VWS V14.01,2013-03-18 21:30:00,
2013-03-18 17:33:00,36.7,36.7,28.64,North,9,8.7,8.7,100,0.00,,,0.04,VWS V14.01,2013-03-18 21:33:00,
2013-03-18 17:35:00,36.7,36.7,28.64,NNE,17,8.3,8.3,100,0.00,,,0.04,VWS V14.01,2013-03-18 21:35:00,
2013-03-18 17:38:00,36.7,36.7,28.64,North,10,6.3,6.3,100,0.00,,,0.04,VWS V14.01,2013-03-18 21:38:00,
2013-03-18 17:40:00,36.7,36.7,28.64,NNE,28,5.8,5.8,100,0.00,,,0.04,VWS V14.01,2013-03-18 21:40:00,
2013-03-18 17:43:00,36.7,36.7,28.64,NNE,22,8.7,8.7,100,0.00,,,0.04,VWS V14.01,2013-03-18 21:43:00,
2013-03-18 17:44:00,36.5,36.5,28.64,NNE,22,8.7,8.7,100,0.00,,,0.04,VWS V14.01,2013-03-18 21:44:00,
2013-03-18 17:46:00,36.5,36.5,28.64,NNE,22,8.7,8.7,100,0.00,,,0.04,VWS V14.01,2013-03-18 21:46:00,
2013-03-18 17:49:00,36.5,36.5,28.64,North,4,8.3,8.3,100,0.00,,,0.04,VWS V14.01,2013-03-18 21:49:00,
2013-03-18 17:51:00,36.5,36.5,28.64,NNE,16,4.0,10.1,100,0.00,,,0.04,VWS V14.01,2013-03-18 21:51:00,
2013-03-18 17:54:00,36.3,36.3,28.64,North,11,8.3,8.3,100,0.00,,,0.04,VWS V14.01,2013-03-18 21:54:00,
2013-03-18 17:56:00,36.3,36.3,28.64,North,357,5.4,5.4,100,0.00,,,0.04,VWS V14.01,2013-03-18 21:56:00,
2013-03-18 17:59:00,36.3,36.3,28.64,North,4,7.6,7.6,100,0.00,,,0.04,VWS V14.01,2013-03-18 21:59:00,
2013-03-18 18:01:00,36.3,36.3,28.64,North,10,8.3,8.3,100,0.00,,,0.04,VWS V14.01,2013-03-18 22:01:00,
2013-03-18 18:04:00,36.1,36.1,28.64,North,353,8.1,10.1,100,0.00,,,0.04,VWS V14.01,2013-03-18 22:04:00,
2013-03-18 18:05:00,36.1,36.1,28.64,North,353,8.1,8.1,100,0.00,,,0.04,VWS V14.01,2013-03-18 22:05:00,
2013-03-18 18:06:00,36.1,36.1,28.64,North,353,8.1,8.1,100,0.00,,,0.04,VWS V14.01,2013-03-18 22:06:00,
2013-03-18 18:09:00,36.1,36.1,28.67,North,6,8.3,8.3,100,0.00,,,0.04,VWS V14.01,2013-03-18 22:09:00,
2013-03-18 18:10:00,36.1,36.1,28.67,North,6,8.3,8.3,100,0.00,,,0.04,VWS V14.01,2013-03-18 22:10:00,
2013-03-18 18:11:00,36.0,36.0,28.67,North,7,8.7,8.7,100,0.00,,,0.04,VWS V14.01,2013-03-18 22:11:00,
2013-03-18 18:14:00,36.0,36.0,28.67,NE,35,5.4,5.4,100,0.00,,,0.04,VWS V14.01,2013-03-18 22:14:00,
2013-03-18 18:15:00,36.0,36.0,28.67,NNE,18,8.3,8.3,100,0.00,,,0.04,VWS V14.01,2013-03-18 22:15:00,
2013-03-18 18:16:00,36.0,36.0,28.67,NNE,18,8.3,8.3,100,0.00,,,0.04,VWS V14.01,2013-03-18 22:16:00,
2013-03-18 18:19:00,35.8,35.8,28.67,North,5,12.8,12.8,100,0.00,,,0.04,VWS V14.01,2013-03-18 22:19:00,
2013-03-18 18:20:00,35.8,35.8,28.67,North,5,12.8,12.8,100,0.00,,,0.04,VWS V14.01,2013-03-18 22:20:00,
2013-03-18 18:21:00,35.6,35.6,28.67,North,5,12.8,12.8,100,0.00,,,0.04,VWS V14.01,2013-03-18 22:21:00,
2013-03-18 18:24:00,35.6,35.6,28.67,NNW,343,8.3,8.3,100,0.00,,,0.04,VWS V14.01,2013-03-18 22:24:00,
2013-03-18 18:25:00,35.6,35.6,28.67,NNW,343,8.3,8.3,100,0.00,,,0.04,VWS V14.01,2013-03-18 22:25:00,
2013-03-18 18:26:00,35.6,35.6,28.67,ENE,61,8.1,8.1,100,0.00,,,0.04,VWS V14.01,2013-03-18 22:26:00,
2013-03-18 18:29:00,35.6,35.6,28.67,NNE,16,6.3,6.3,100,0.00,,,0.04,VWS V14.01,2013-03-18 22:29:00,
2013-03-18 18:30:00,35.6,35.6,28.67,NNE,16,6.3,6.3,100,0.00,,,0.04,VWS V14.01,2013-03-18 22:30:00,
2013-03-18 18:32:00,35.6,35.6,28.67,North,357,7.6,7.6,100,0.00,,,0.04,VWS V14.01,2013-03-18 22:32:00,
2013-03-18 18:34:00,35.6,35.6,28.67,North,6,8.1,8.1,100,0.00,,,0.04,VWS V14.01,2013-03-18 22:34:00,
2013-03-18 18:35:00,35.6,35.6,28.67,North,6,8.1,8.1,100,0.00,,,0.04,VWS V14.01,2013-03-18 22:35:00,
2013-03-18 18:37:00,35.6,35.6,28.67,North,357,10.1,10.1,100,0.00,,,0.04,VWS V14.01,2013-03-18 22:37:00,
2013-03-18 18:39:00,35.6,35.6,28.67,North,11,5.8,8.1,100,0.00,,,0.04,VWS V14.01,2013-03-18 22:39:00,
2013-03-18 18:40:00,35.6,35.6,28.67,North,11,5.8,8.1,100,0.00,,,0.04,VWS V14.01,2013-03-18 22:40:00,
2013-03-18 18:42:00,35.6,35.6,28.67,North,7,7.6,7.6,100,0.00,,,0.04,VWS V14.01,2013-03-18 22:42:00,
2013-03-18 18:45:00,35.4,35.4,28.67,NNE,12,5.8,5.8,100,0.00,,,0.04,VWS V14.01,2013-03-18 22:45:00,
2013-03-18 18:47:00,35.4,35.4,28.67,North,4,8.7,8.7,100,0.00,,,0.04,VWS V14.01,2013-03-18 22:47:00,
2013-03-18 18:50:00,35.4,35.4,28.67,North,8,5.4,5.4,100,0.00,,,0.04,VWS V14.01,2013-03-18 22:50:00,
2013-03-18 18:52:00,35.2,35.2,28.67,NNE,22,8.1,8.1,100,0.00,,,0.04,VWS V14.01,2013-03-18 22:52:00,
2013-03-18 18:55:00,35.2,35.2,28.67,NE,36,7.6,13.2,100,0.00,,,0.04,VWS V14.01,2013-03-18 22:55:00,
2013-03-18 18:57:00,35.2,35.2,28.67,North,5,4.9,4.9,100,0.00,,,0.04,VWS V14.01,2013-03-18 22:57:00,
2013-03-18 19:00:00,35.1,35.1,28.70,NNE,18,8.7,8.7,100,0.00,,,0.04,VWS V14.01,2013-03-18 23:00:00,
2013-03-18 19:03:00,35.1,35.1,28.70,NNE,13,8.1,8.1,100,0.00,,,0.04,VWS V14.01,2013-03-18 23:03:00,
2013-03-18 19:05:00,35.1,35.1,28.70,NNE,13,8.1,8.1,100,0.00,,,0.04,VWS V14.01,2013-03-18 23:05:00,
2013-03-18 19:08:00,35.1,35.1,28.70,North,357,7.6,8.3,100,0.00,,,0.04,VWS V14.01,2013-03-18 23:08:00,
2013-03-18 19:10:00,35.1,35.1,28.70,North,357,7.6,7.6,100,0.00,,,0.04,VWS V14.01,2013-03-18 23:10:00,
2013-03-18 19:13:00,34.9,34.9,28.70,North,353,3.6,3.6,100,0.00,,,0.04,VWS V14.01,2013-03-18 23:13:00,
2013-03-18 19:15:00,34.9,34.9,28.70,NE,41,10.1,10.1,100,0.00,,,0.04,VWS V14.01,2013-03-18 23:15:00,
2013-03-18 19:18:00,34.9,34.9,28.70,North,9,8.1,8.7,100,0.00,,,0.04,VWS V14.01,2013-03-18 23:18:00,
2013-03-18 19:20:00,34.9,34.9,28.70,NNE,15,8.3,8.3,100,0.00,,,0.04,VWS V14.01,2013-03-18 23:20:00,
2013-03-18 19:21:00,34.9,34.9,28.70,North,0,10.5,10.5,100,0.00,,,0.04,VWS V14.01,2013-03-18 23:21:00,
2013-03-18 19:23:00,34.9,34.9,28.70,North,0,10.5,10.5,100,0.00,,,0.04,VWS V14.01,2013-03-18 23:23:00,
2013-03-18 19:25:00,34.9,34.9,28.70,North,0,9.2,9.2,100,0.00,,,0.04,VWS V14.01,2013-03-18 23:25:00,
2013-03-18 19:27:00,34.9,34.9,28.70,North,0,9.2,9.2,100,0.00,,,0.04,VWS V14.01,2013-03-18 23:27:00,
2013-03-18 19:28:00,34.9,34.9,28.70,North,357,8.1,9.2,100,0.00,,,0.04,VWS V14.01,2013-03-18 23:28:00,
2013-03-18 19:30:00,34.5,34.5,28.70,NNE,28,7.6,7.6,100,0.00,,,0.04,VWS V14.01,2013-03-18 23:30:00,
2013-03-18 19:32:00,34.5,34.5,28.70,NNE,17,5.4,5.4,100,0.00,,,0.04,VWS V14.01,2013-03-18 23:32:00,
2013-03-18 19:33:00,34.5,34.5,28.70,NNW,335,4.9,4.9,100,0.00,,,0.04,VWS V14.01,2013-03-18 23:33:00,
2013-03-18 19:35:00,34.5,34.5,28.70,North,3,8.1,8.1,100,0.00,,,0.04,VWS V14.01,2013-03-18 23:35:00,
2013-03-18 19:36:00,34.5,34.5,28.70,North,3,8.1,8.1,100,0.00,,,0.04,VWS V14.01,2013-03-18 23:36:00,
2013-03-18 19:37:00,34.5,34.5,28.70,North,0,6.3,6.3,100,0.00,,,0.04,VWS V14.01,2013-03-18 23:37:00,
2013-03-18 19:38:00,34.5,34.5,28.70,North,0,6.3,6.3,100,0.00,,,0.04,VWS V14.01,2013-03-18 23:38:00,
2013-03-18 19:40:00,34.5,34.5,28.70,North,11,5.8,5.8,100,0.00,,,0.04,VWS V14.01,2013-03-18 23:40:00,
2013-03-18 19:41:00,34.5,34.5,28.70,North,353,7.6,7.6,100,0.00,,,0.04,VWS V14.01,2013-03-18 23:41:00,
2013-03-18 19:42:00,34.5,34.5,28.70,NNE,18,5.4,5.4,100,0.00,,,0.04,VWS V14.01,2013-03-18 23:42:00,
2013-03-18 19:43:00,34.5,34.5,28.70,NNE,18,5.4,5.4,100,0.00,,,0.04,VWS V14.01,2013-03-18 23:43:00,
2013-03-18 19:45:00,34.5,34.5,28.70,NNE,18,5.4,5.4,100,0.00,,,0.04,VWS V14.01,2013-03-18 23:45:00,
2013-03-18 19:47:00,34.5,34.5,28.70,North,3,8.7,8.7,100,0.00,,,0.04,VWS V14.01,2013-03-18 23:47:00,
2013-03-18 19:48:00,34.5,34.5,28.70,North,357,10.5,10.5,100,0.00,,,0.04,VWS V14.01,2013-03-18 23:48:00,
2013-03-18 19:50:00,34.5,34.5,28.70,NNE,15,6.3,8.1,100,0.00,,,0.04,VWS V14.01,2013-03-18 23:50:00,
2013-03-18 19:52:00,34.5,34.5,28.70,NNE,15,6.3,6.3,100,0.00,,,0.04,VWS V14.01,2013-03-18 23:52:00,
2013-03-18 19:53:00,34.5,34.5,28.73,NNE,15,6.3,6.3,100,0.00,,,0.04,VWS V14.01,2013-03-18 23:53:00,
2013-03-18 19:55:00,34.5,34.5,28.73,North,7,8.7,8.7,100,0.00,,,0.00,VWS V14.01,2013-03-18 23:55:00,
2013-03-18 19:57:00,34.5,34.5,28.73,North,353,8.3,8.3,100,0.00,,,0.04,VWS V14.01,2013-03-18 23:57:00,
2013-03-18 19:59:00,34.5,34.5,28.73,North,353,8.3,8.3,100,0.00,,,0.04,VWS V14.01,2013-03-18 23:59:00,
2013-03-18 20:00:00,34.5,34.5,28.73,North,353,8.3,8.3,100,0.00,,,0.04,VWS V14.01,2013-03-19 00:00:00,
2013-03-18 20:02:00,34.5,34.5,28.73,NNE,17,7.6,7.6,100,0.00,,,0.04,VWS V14.01,2013-03-19 00:02:00,
2013-03-18 20:04:00,34.5,34.5,28.73,NNE,14,7.2,8.3,100,0.00,,,0.04,VWS V14.01,2013-03-19 00:04:00,
2013-03-18 20:05:00,34.5,34.5,28.73,NNE,14,7.2,7.2,100,0.00,,,0.04,VWS V14.01,2013-03-19 00:05:00,
2013-03-18 20:07:00,34.5,34.5,28.73,North,7,5.8,5.8,100,0.00,,,0.04,VWS V14.01,2013-03-19 00:07:00,
2013-03-18 20:08:00,34.5,34.5,28.73,NNE,14,6.3,6.3,100,0.00,,,0.04,VWS V14.01,2013-03-19 00:08:00,
2013-03-18 20:09:00,34.5,34.5,28.73,North,2,5.4,5.4,100,0.00,,,0.04,VWS V14.01,2013-03-19 00:09:00,
2013-03-18 20:10:00,34.5,34.5,28.73,North,2,5.4,5.4,100,0.00,,,0.04,VWS V14.01,2013-03-19 00:10:00,
2013-03-18 20:13:00,34.7,34.7,28.73,North,2,5.4,5.4,100,0.00,,,0.04,VWS V14.01,2013-03-19 00:13:00,
2013-03-18 20:14:00,34.7,34.7,28.73,North,2,5.4,5.4,100,0.00,,,0.04,VWS V14.01,2013-03-19 00:14:00,
2013-03-18 20:15:00,34.7,34.7,28.73,North,357,6.3,6.3,100,0.00,,,0.04,VWS V14.01,2013-03-19 00:15:00,
2013-03-18 20:18:00,34.7,34.7,28.73,North,5,6.3,6.3,100,0.00,,,0.04,VWS V14.01,2013-03-19 00:18:00,
2013-03-18 20:19:00,34.7,34.7,28.73,North,5,6.3,6.3,100,0.00,,,0.04,VWS V14.01,2013-03-19 00:19:00,
2013-03-18 20:20:00,34.7,34.7,28.73,North,5,6.3,6.3,100,0.00,,,0.04,VWS V14.01,2013-03-19 00:20:00,
2013-03-18 20:23:00,34.7,34.7,28.73,North,1,4.9,4.9,100,0.00,,,0.04,VWS V14.01,2013-03-19 00:23:00,
2013-03-18 20:24:00,34.9,34.9,28.73,North,11,8.7,8.7,100,0.00,,,0.04,VWS V14.01,2013-03-19 00:24:00,
2013-03-18 20:27:00,34.9,34.9,28.73,North,11,8.7,8.7,100,0.00,,,0.04,VWS V14.01,2013-03-19 00:27:00,
2013-03-18 20:28:00,34.9,34.9,28.73,North,8,5.4,8.7,100,0.00,,,0.04,VWS V14.01,2013-03-19 00:28:00,
2013-03-18 20:29:00,34.9,34.9,28.73,North,8,5.4,5.4,100,0.00,,,0.04,VWS V14.01,2013-03-19 00:29:00,
2013-03-18 20:32:00,34.9,34.9,28.73,North,7,7.6,7.6,100,0.00,,,0.04,VWS V14.01,2013-03-19 00:32:00,
2013-03-18 20:33:00,34.9,34.9,28.73,North,7,7.6,7.6,100,0.00,,,0.04,VWS V14.01,2013-03-19 00:33:00,
2013-03-18 20:34:00,34.9,34.9,28.73,North,357,6.3,6.3,100,0.00,,,0.04,VWS V14.01,2013-03-19 00:34:00,
2013-03-18 20:37:00,34.9,34.9,28.73,North,1,7.2,7.6,100,0.00,,,0.04,VWS V14.01,2013-03-19 00:37:00,
2013-03-18 20:38:00,34.9,34.9,28.73,North,1,7.2,7.2,100,0.00,,,0.04,VWS V14.01,2013-03-19 00:38:00,
2013-03-18 20:40:00,34.9,34.9,28.73,North,353,7.6,7.6,100,0.00,,,0.04,VWS V14.01,2013-03-19 00:40:00,
2013-03-18 20:42:00,35.1,35.1,28.73,North,357,7.6,7.6,100,0.00,,,0.04,VWS V14.01,2013-03-19 00:42:00,
2013-03-18 20:43:00,35.1,35.1,28.73,North,4,5.4,7.6,100,0.00,,,0.04,VWS V14.01,2013-03-19 00:43:00,
2013-03-18 20:45:00,35.1,35.1,28.73,North,353,8.7,8.7,100,0.00,,,0.04,VWS V14.01,2013-03-19 00:45:00,
2013-03-18 20:47:00,35.2,35.2,28.73,North,353,8.7,8.7,100,0.00,,,0.04,VWS V14.01,2013-03-19 00:47:00,
2013-03-18 20:48:00,35.2,35.2,28.73,North,353,8.7,8.7,100,0.00,,,0.04,VWS V14.01,2013-03-19 00:48:00,
2013-03-18 20:50:00,35.2,35.2,28.73,North,357,8.3,8.3,100,0.00,,,0.04,VWS V14.01,2013-03-19 00:50:00,
2013-03-18 20:52:00,35.2,35.2,28.73,North,6,8.7,8.7,100,0.00,,,0.04,VWS V14.01,2013-03-19 00:52:00,
2013-03-18 20:53:00,35.2,35.2,28.73,North,6,8.7,8.7,100,0.00,,,0.04,VWS V14.01,2013-03-19 00:53:00,
2013-03-18 20:55:00,35.2,35.2,28.73,North,0,7.6,8.7,100,0.00,,,0.04,VWS V14.01,2013-03-19 00:55:00,
2013-03-18 20:58:00,35.2,35.2,28.73,North,0,8.1,8.1,100,0.00,,,0.04,VWS V14.01,2013-03-19 00:58:00,
2013-03-18 20:59:00,35.2,35.2,28.73,North,0,8.1,8.1,100,0.00,,,0.04,VWS V14.01,2013-03-19 00:59:00,
2013-03-18 21:00:00,35.4,35.4,28.73,North,10,7.2,7.2,100,0.00,,,0.04,VWS V14.01,2013-03-19 01:00:00,
2013-03-18 21:03:00,35.4,35.4,28.73,North,357,8.7,8.7,100,0.00,,,0.04,VWS V14.01,2013-03-19 01:03:00,
2013-03-18 21:04:00,35.4,35.4,28.73,North,357,8.7,8.7,100,0.00,,,0.04,VWS V14.01,2013-03-19 01:04:00,
2013-03-18 21:05:00,35.4,35.4,28.73,North,357,8.7,8.7,100,0.00,,,0.04,VWS V14.01,2013-03-19 01:05:00,
2013-03-18 21:08:00,35.4,35.4,28.73,NNE,32,8.1,10.1,100,0.00,,,0.04,VWS V14.01,2013-03-19 01:08:00,
2013-03-18 21:09:00,35.4,35.4,28.76,NNW,345,12.8,12.8,100,0.00,,,0.04,VWS V14.01,2013-03-19 01:09:00,
2013-03-18 21:10:00,35.8,35.8,28.76,North,357,13.2,13.2,100,0.00,,,0.04,VWS V14.01,2013-03-19 01:10:00,
2013-03-18 21:13:00,35.8,35.8,28.76,North,357,13.2,13.2,100,0.00,,,0.04,VWS V14.01,2013-03-19 01:13:00,
2013-03-18 21:14:00,35.8,35.8,28.76,North,350,10.5,10.5,100,0.00,,,0.04,VWS V14.01,2013-03-19 01:14:00,
2013-03-18 21:15:00,35.8,35.8,28.76,NNE,28,8.3,8.3,100,0.00,,,0.04,VWS V14.01,2013-03-19 01:15:00,
2013-03-18 21:18:00,35.8,35.8,28.76,NNE,28,8.3,8.3,100,0.00,,,0.04,VWS V14.01,2013-03-19 01:18:00,
2013-03-18 21:19:00,35.8,35.8,28.76,NNE,28,8.3,8.3,100,0.00,,,0.04,VWS V14.01,2013-03-19 01:19:00,
2013-03-18 21:21:00,35.8,35.8,28.76,NNW,338,8.7,8.7,100,0.00,,,0.04,VWS V14.01,2013-03-19 01:21:00,
2013-03-18 21:23:00,35.8,35.8,28.76,NNW,338,8.7,8.7,100,0.00,,,0.04,VWS V14.01,2013-03-19 01:23:00,
2013-03-18 21:24:00,35.8,35.8,28.76,North,0,6.7,6.7,100,0.00,,,0.04,VWS V14.01,2013-03-19 01:24:00,
2013-03-18 21:26:00,35.8,35.8,28.76,North,11,10.1,10.1,100,0.00,,,0.04,VWS V14.01,2013-03-19 01:26:00,
2013-03-18 21:28:00,35.8,35.8,28.76,North,357,8.3,8.3,100,0.00,,,0.04,VWS V14.01,2013-03-19 01:28:00,
2013-03-18 21:29:00,35.8,35.8,28.76,North,8,12.3,12.3,100,0.00,,,0.04,VWS V14.01,2013-03-19 01:29:00,
2013-03-18 21:32:00,35.8,35.8,28.76,North,8,12.3,12.3,100,0.00,,,0.04,VWS V14.01,2013-03-19 01:32:00,
2013-03-18 21:33:00,35.8,35.8,28.76,North,8,12.3,12.3,100,0.00,,,0.04,VWS V14.01,2013-03-19 01:33:00,
2013-03-18 21:34:00,36.0,36.0,28.76,North,7,10.1,10.1,100,0.00,,,0.04,VWS V14.01,2013-03-19 01:34:00,
2013-03-18 21:37:00,36.0,36.0,28.76,NNE,28,7.6,7.6,100,0.00,,,0.04,VWS V14.01,2013-03-19 01:37:00,
2013-03-18 21:38:00,36.0,36.0,28.76,NNE,28,7.6,7.6,100,0.00,,,0.04,VWS V14.01,2013-03-19 01:38:00,
2013-03-18 21:39:00,36.0,36.0,28.76,NNE,28,7.6,7.6,100,0.00,,,0.04,VWS V14.01,2013-03-19 01:39:00,
2013-03-18 21:42:00,36.0,36.0,28.76,NNE,31,5.4,5.4,100,0.00,,,0.04,VWS V14.01,2013-03-19 01:42:00,
2013-03-18 21:44:00,36.0,36.0,28.76,North,11,5.4,5.4,100,0.00,,,0.04,VWS V14.01,2013-03-19 01:44:00,
2013-03-18 21:47:00,36.0,36.0,28.76,North,11,5.4,5.4,100,0.00,,,0.04,VWS V14.01,2013-03-19 01:47:00,
2013-03-18 21:49:00,35.8,35.0,28.76,North,7,5.4,11.0,97,0.00,,,0.04,VWS V14.01,2013-03-19 01:49:00,
2013-03-18 21:52:00,35.8,35.0,28.76,North,5,9.6,9.6,97,0.00,,,0.04,VWS V14.01,2013-03-19 01:52:00,
2013-03-18 21:54:00,35.8,35.0,28.76,North,5,9.6,9.6,97,0.00,,,0.04,VWS V14.01,2013-03-19 01:54:00,
2013-03-18 21:55:00,35.8,35.0,28.76,North,4,13.2,13.2,97,0.00,,,0.04,VWS V14.01,2013-03-19 01:55:00,
2013-03-18 21:57:00,35.8,35.0,28.76,North,353,14.5,14.5,97,0.00,,,0.04,VWS V14.01,2013-03-19 01:57:00,
2013-03-18 21:59:00,35.4,32.8,28.76,North,353,14.5,14.5,90,0.00,,,0.04,VWS V14.01,2013-03-19 01:59:00,
2013-03-18 22:00:00,35.4,32.8,28.76,North,353,14.5,14.5,90,0.00,,,0.04,VWS V14.01,2013-03-19 02:00:00,
2013-03-18 22:02:00,35.4,32.8,28.76,North,8,8.3,8.3,90,0.00,,,0.04,VWS V14.01,2013-03-19 02:02:00,
2013-03-18 22:04:00,35.4,31.9,28.76,North,350,12.8,12.8,87,0.00,,,0.04,VWS V14.01,2013-03-19 02:04:00,
2013-03-18 22:05:00,35.4,31.9,28.76,North,350,12.8,12.8,87,0.00,,,0.04,VWS V14.01,2013-03-19 02:05:00,
2013-03-18 22:07:00,35.4,31.4,28.76,North,350,12.8,12.8,85,0.00,,,0.04,VWS V14.01,2013-03-19 02:07:00,
2013-03-18 22:09:00,35.4,31.4,28.76,NNW,338,10.5,10.5,85,0.00,,,0.04,VWS V14.01,2013-03-19 02:09:00,
2013-03-18 22:10:00,35.4,31.4,28.76,NNW,338,10.5,10.5,85,0.00,,,0.04,VWS V14.01,2013-03-19 02:10:00,
2013-03-18 22:13:00,35.1,30.7,28.76,North,5,17.9,17.9,84,0.00,,,0.04,VWS V14.01,2013-03-19 02:13:00,
2013-03-18 22:14:00,35.1,30.4,28.76,North,3,15.9,15.9,83,0.00,,,0.04,VWS V14.01,2013-03-19 02:14:00,
2013-03-18 22:15:00,35.1,30.4,28.76,North,3,15.9,15.9,83,0.00,,,0.04,VWS V14.01,2013-03-19 02:15:00,
2013-03-18 22:18:00,35.1,30.4,28.76,North,0,15.0,15.0,83,0.00,,,0.04,VWS V14.01,2013-03-19 02:18:00,
2013-03-18 22:19:00,35.1,30.4,28.76,North,0,15.0,15.0,83,0.00,,,0.04,VWS V14.01,2013-03-19 02:19:00,
2013-03-18 22:20:00,35.1,30.4,28.76,North,0,15.0,15.0,83,0.00,,,0.04,VWS V14.01,2013-03-19 02:20:00,
2013-03-18 22:23:00,34.7,29.8,28.76,North,5,14.5,14.5,82,0.00,,,0.04,VWS V14.01,2013-03-19 02:23:00,
2013-03-18 22:24:00,34.7,29.8,28.76,North,5,14.5,14.5,82,0.00,,,0.04,VWS V14.01,2013-03-19 02:24:00,
2013-03-18 22:25:00,34.7,29.8,28.76,North,5,14.5,14.5,82,0.00,,,0.04,VWS V14.01,2013-03-19 02:25:00,
2013-03-18 22:28:00,34.5,29.6,28.76,North,7,10.1,10.1,82,0.00,,,0.04,VWS V14.01,2013-03-19 02:28:00,
2013-03-18 22:29:00,34.5,29.6,28.76,North,7,10.1,10.1,82,0.00,,,0.04,VWS V14.01,2013-03-19 02:29:00,
2013-03-18 22:30:00,34.3,29.7,28.76,NNW,337,8.1,8.1,83,0.00,,,0.04,VWS V14.01,2013-03-19 02:30:00,
2013-03-18 22:33:00,34.3,29.7,28.76,NNW,337,8.1,8.1,83,0.00,,,0.04,VWS V14.01,2013-03-19 02:33:00,
2013-03-18 22:34:00,34.3,29.7,28.76,NNE,12,10.5,10.5,83,0.00,,,0.04,VWS V14.01,2013-03-19 02:34:00,
2013-03-18 22:35:00,34.3,29.7,28.76,North,0,8.7,8.7,83,0.00,,,0.04,VWS V14.01,2013-03-19 02:35:00,
2013-03-18 22:38:00,34.3,29.7,28.76,North,0,8.7,8.7,83,0.00,,,0.04,VWS V14.01,2013-03-19 02:38:00,
2013-03-18 22:39:00,34.3,29.7,28.76,North,11,10.1,10.1,83,0.00,,,0.04,VWS V14.01,2013-03-19 02:39:00,
2013-03-18 22:40:00,34.3,29.4,28.76,North,11,10.1,10.1,82,0.00,,,0.04,VWS V14.01,2013-03-19 02:40:00,
2013-03-18 22:43:00,34.3,29.4,28.76,North,5,18.3,18.3,82,0.00,,,0.04,VWS V14.01,2013-03-19 02:43:00,
2013-03-18 22:45:00,34.2,29.0,28.76,NE,50,13.2,13.2,81,0.00,,,0.04,VWS V14.01,2013-03-19 02:45:00,
2013-03-18 22:46:00,34.2,29.0,28.76,NE,50,13.2,13.2,81,0.00,,,0.04,VWS V14.01,2013-03-19 02:46:00,
2013-03-18 22:48:00,34.2,29.0,28.76,NNE,16,14.5,14.5,81,0.00,,,0.04,VWS V14.01,2013-03-19 02:48:00,
2013-03-18 22:50:00,34.2,29.0,28.76,NNE,16,14.5,14.5,81,0.00,,,0.04,VWS V14.01,2013-03-19 02:50:00,
2013-03-18 22:51:00,34.2,29.0,28.76,NNE,16,14.5,14.5,81,0.00,,,0.04,VWS V14.01,2013-03-19 02:51:00,
2013-03-18 22:53:00,34.2,29.0,28.76,NNE,17,8.7,8.7,81,0.00,,,0.04,VWS V14.01,2013-03-19 02:53:00,
2013-03-18 22:55:00,34.2,29.0,28.76,North,353,8.7,8.7,81,0.00,,,0.04,VWS V14.01,2013-03-19 02:55:00,
2013-03-18 22:56:00,33.8,28.0,28.76,North,353,8.7,8.7,79,0.00,,,0.04,VWS V14.01,2013-03-19 02:56:00,
2013-03-18 22:59:00,33.8,28.0,28.76,North,353,11.0,11.0,79,0.00,,,0.04,VWS V14.01,2013-03-19 02:59:00,
2013-03-18 23:00:00,33.8,28.0,28.76,North,353,11.0,11.0,79,0.00,,,0.04,VWS V14.01,2013-03-19 03:00:00,
2013-03-18 23:01:00,33.8,28.0,28.76,North,5,13.2,13.2,79,0.00,,,0.04,VWS V14.01,2013-03-19 03:01:00,
2013-03-18 23:04:00,33.8,28.0,28.76,North,5,13.2,13.2,79,0.00,,,0.04,VWS V14.01,2013-03-19 03:04:00,
2013-03-18 23:05:00,33.1,27.3,28.76,North,5,13.2,13.2,79,0.00,,,0.04,VWS V14.01,2013-03-19 03:05:00,
2013-03-18 23:06:00,33.1,27.3,28.76,North,5,13.2,13.2,79,0.00,,,0.04,VWS V14.01,2013-03-19 03:06:00,
2013-03-18 23:09:00,32.9,27.4,28.79,North,6,12.8,12.8,80,0.00,,,0.04,VWS V14.01,2013-03-19 03:09:00,
2013-03-18 23:10:00,32.9,27.4,28.79,North,11,11.0,11.0,80,0.00,,,0.04,VWS V14.01,2013-03-19 03:10:00,
2013-03-18 23:11:00,32.9,27.4,28.79,North,11,11.0,11.0,80,0.00,,,0.04,VWS V14.01,2013-03-19 03:11:00,
2013-03-18 23:14:00,32.9,27.4,28.79,North,11,11.0,11.0,80,0.00,,,0.04,VWS V14.01,2013-03-19 03:14:00,
2013-03-18 23:16:00,32.9,27.4,28.79,NNE,24,7.6,7.6,80,0.00,,,0.04,VWS V14.01,2013-03-19 03:16:00,
2013-03-18 23:19:00,32.5,27.4,28.79,North,357,15.0,15.0,81,0.00,,,0.04,VWS V14.01,2013-03-19 03:19:00,
2013-03-18 23:21:00,32.5,27.4,28.79,NNE,13,8.7,15.0,81,0.00,,,0.04,VWS V14.01,2013-03-19 03:21:00,
2013-03-18 23:24:00,32.2,27.0,28.79,North,0,12.8,12.8,81,0.00,,,0.04,VWS V14.01,2013-03-19 03:24:00,
2013-03-18 23:26:00,32.2,27.0,28.79,North,0,12.8,12.8,81,0.00,,,0.04,VWS V14.01,2013-03-19 03:26:00,
2013-03-18 23:29:00,32.2,27.0,28.79,North,0,12.8,12.8,81,0.00,,,0.04,VWS V14.01,2013-03-19 03:29:00,
2013-03-18 23:31:00,32.0,26.5,28.79,North,0,12.8,12.8,80,0.00,,,0.04,VWS V14.01,2013-03-19 03:31:00,
2013-03-18 23:34:00,31.8,26.4,28.79,North,8,14.5,14.5,80,0.00,,,0.04,VWS V14.01,2013-03-19 03:34:00,
2013-03-18 23:36:00,31.8,26.4,28.79,North,7,9.2,9.2,80,0.00,,,0.04,VWS V14.01,2013-03-19 03:36:00,
2013-03-18 23:37:00,31.8,26.4,28.79,North,7,9.2,9.2,80,0.00,,,0.04,VWS V14.01,2013-03-19 03:37:00,
2013-03-18 23:39:00,31.8,26.4,28.79,North,7,9.2,9.2,80,0.00,,,0.04,VWS V14.01,2013-03-19 03:39:00,
2013-03-18 23:41:00,31.8,26.4,28.79,North,7,9.2,9.2,80,0.00,,,0.04,VWS V14.01,2013-03-19 03:41:00,
2013-03-18 23:42:00,31.8,26.4,28.79,North,7,9.2,9.2,80,0.00,,,0.04,VWS V14.01,2013-03-19 03:42:00,
2013-03-18 23:44:00,31.8,26.4,28.79,North,4,10.1,10.1,80,0.00,,,0.04,VWS V14.01,2013-03-19 03:44:00,
2013-03-18 23:47:00,31.1,25.4,28.79,North,4,10.1,10.1,79,0.00,,,0.04,VWS V14.01,2013-03-19 03:47:00,
2013-03-18 23:50:00,31.1,25.4,28.79,NNE,24,8.7,8.7,79,0.00,,,0.04,VWS V14.01,2013-03-19 03:50:00,
2013-03-18 23:52:00,31.1,25.4,28.79,North,353,8.3,8.7,79,0.00,,,0.04,VWS V14.01,2013-03-19 03:52:00,
2013-03-18 23:55:00,30.6,24.8,28.79,North,353,8.3,8.3,79,0.00,,,0.04,VWS V14.01,2013-03-19 03:55:00,
2013-03-18 23:57:00,30.6,24.8,28.79,North,353,8.3,8.3,79,0.00,,,0.04,VWS V14.01,2013-03-19 03:57:00,
2013-03-18 23:58:00,30.4,24.7,28.79,North,353,8.3,8.3,79,0.00,,,0.04,VWS V14.01,2013-03-19 03:58:00,